<?xml version="1.0" encoding="UTF-8" standalone="no" ?>
<gpx xmlns="http://www.topografix.com/GPX/1/1" xmlns:xsi="http://www.w3.org/2001/XMLSchema-instance" xsi:schemaLocation="http://www.topografix.com/GPX/1/1 http://www.topografix.com/GPX/1/1/gpx.xsd" version="1.1" creator="VisuGPX - https://www.visugpx.com">
  <metadata>
    <name>Gorges de la Bouble</name>
    <desc><![CDATA[Très jolie ballade permettant de passer au bord de l\'Abbaye et traverser la rivière par les gués.]]></desc>
  </metadata>
  <trk>
    <name><![CDATA[28 oct. 2012 14:46:06]]></name>
    <cmt><![CDATA[28 oct. 2012 14:46:06]]></cmt>
    <trkseg>
      <trkpt lat="46.24346" lon="3.15237">
        <ele>283</ele>
        <time>2012-10-28T13:46:07Z</time>
      </trkpt>
      <trkpt lat="46.24355" lon="3.15225">
        <ele>278</ele>
        <time>2012-10-28T13:46:26Z</time>
      </trkpt>
      <trkpt lat="46.24358" lon="3.15221">
        <ele>279</ele>
        <time>2012-10-28T13:46:42Z</time>
      </trkpt>
      <trkpt lat="46.24371" lon="3.15216">
        <ele>280</ele>
        <time>2012-10-28T13:46:59Z</time>
      </trkpt>
      <trkpt lat="46.24381" lon="3.15213">
        <ele>281</ele>
        <time>2012-10-28T13:47:11Z</time>
      </trkpt>
      <trkpt lat="46.2439" lon="3.15211">
        <ele>282</ele>
        <time>2012-10-28T13:47:17Z</time>
      </trkpt>
      <trkpt lat="46.244" lon="3.15211">
        <ele>282</ele>
        <time>2012-10-28T13:47:22Z</time>
      </trkpt>
      <trkpt lat="46.24412" lon="3.1521">
        <ele>280</ele>
        <time>2012-10-28T13:47:31Z</time>
      </trkpt>
      <trkpt lat="46.2442" lon="3.15206">
        <ele>279</ele>
        <time>2012-10-28T13:47:51Z</time>
      </trkpt>
      <trkpt lat="46.24416" lon="3.15205">
        <ele>288</ele>
        <time>2012-10-28T13:48:36Z</time>
      </trkpt>
      <trkpt lat="46.24409" lon="3.15203">
        <ele>286</ele>
        <time>2012-10-28T13:48:45Z</time>
      </trkpt>
      <trkpt lat="46.24404" lon="3.15192">
        <ele>284</ele>
        <time>2012-10-28T13:48:59Z</time>
      </trkpt>
      <trkpt lat="46.24401" lon="3.15183">
        <ele>285</ele>
        <time>2012-10-28T13:49:03Z</time>
      </trkpt>
      <trkpt lat="46.244" lon="3.15167">
        <ele>287</ele>
        <time>2012-10-28T13:49:14Z</time>
      </trkpt>
      <trkpt lat="46.2439" lon="3.1514">
        <ele>267</ele>
        <time>2012-10-28T13:50:07Z</time>
      </trkpt>
      <trkpt lat="46.24387" lon="3.15135">
        <ele>261</ele>
        <time>2012-10-28T13:50:28Z</time>
      </trkpt>
      <trkpt lat="46.24385" lon="3.15122">
        <ele>259</ele>
        <time>2012-10-28T13:50:32Z</time>
      </trkpt>
      <trkpt lat="46.24383" lon="3.15106">
        <ele>256</ele>
        <time>2012-10-28T13:50:40Z</time>
      </trkpt>
      <trkpt lat="46.24375" lon="3.15088">
        <ele>256</ele>
        <time>2012-10-28T13:50:47Z</time>
      </trkpt>
      <trkpt lat="46.24367" lon="3.15078">
        <ele>256</ele>
        <time>2012-10-28T13:50:51Z</time>
      </trkpt>
      <trkpt lat="46.24359" lon="3.1507">
        <ele>256</ele>
        <time>2012-10-28T13:50:57Z</time>
      </trkpt>
      <trkpt lat="46.24355" lon="3.15064">
        <ele>248</ele>
        <time>2012-10-28T13:51:31Z</time>
      </trkpt>
      <trkpt lat="46.24347" lon="3.15055">
        <ele>246</ele>
        <time>2012-10-28T13:51:35Z</time>
      </trkpt>
      <trkpt lat="46.24339" lon="3.15046">
        <ele>246</ele>
        <time>2012-10-28T13:51:36Z</time>
      </trkpt>
      <trkpt lat="46.24331" lon="3.15035">
        <ele>246</ele>
        <time>2012-10-28T13:51:40Z</time>
      </trkpt>
      <trkpt lat="46.24325" lon="3.15018">
        <ele>249</ele>
        <time>2012-10-28T13:51:51Z</time>
      </trkpt>
      <trkpt lat="46.24299" lon="3.14995">
        <ele>266</ele>
        <time>2012-10-28T13:52:11Z</time>
      </trkpt>
      <trkpt lat="46.24289" lon="3.14991">
        <ele>269</ele>
        <time>2012-10-28T13:52:15Z</time>
      </trkpt>
      <trkpt lat="46.24279" lon="3.14983">
        <ele>275</ele>
        <time>2012-10-28T13:52:25Z</time>
      </trkpt>
      <trkpt lat="46.24243" lon="3.14951">
        <ele>300.2</ele>
        <time>2012-10-28T13:53:08Z</time>
      </trkpt>
      <trkpt lat="46.24191" lon="3.14991">
        <ele>281</ele>
        <time>2012-10-28T13:54:03Z</time>
      </trkpt>
      <trkpt lat="46.24182" lon="3.14971">
        <ele>281</ele>
        <time>2012-10-28T13:54:13Z</time>
      </trkpt>
      <trkpt lat="46.24173" lon="3.1498">
        <ele>281</ele>
        <time>2012-10-28T13:54:16Z</time>
      </trkpt>
      <trkpt lat="46.24168" lon="3.1499">
        <ele>281</ele>
        <time>2012-10-28T13:54:20Z</time>
      </trkpt>
      <trkpt lat="46.2416" lon="3.14999">
        <ele>282</ele>
        <time>2012-10-28T13:54:40Z</time>
      </trkpt>
      <trkpt lat="46.2415" lon="3.15002">
        <ele>282</ele>
        <time>2012-10-28T13:54:44Z</time>
      </trkpt>
      <trkpt lat="46.24141" lon="3.15003">
        <ele>282</ele>
        <time>2012-10-28T13:54:51Z</time>
      </trkpt>
      <trkpt lat="46.24131" lon="3.15011">
        <ele>282</ele>
        <time>2012-10-28T13:55:07Z</time>
      </trkpt>
      <trkpt lat="46.24122" lon="3.15017">
        <ele>283</ele>
        <time>2012-10-28T13:55:21Z</time>
      </trkpt>
      <trkpt lat="46.24113" lon="3.15023">
        <ele>282</ele>
        <time>2012-10-28T13:55:26Z</time>
      </trkpt>
      <trkpt lat="46.24104" lon="3.15026">
        <ele>282</ele>
        <time>2012-10-28T13:55:32Z</time>
      </trkpt>
      <trkpt lat="46.24096" lon="3.15035">
        <ele>282</ele>
        <time>2012-10-28T13:55:42Z</time>
      </trkpt>
      <trkpt lat="46.24088" lon="3.15043">
        <ele>281</ele>
        <time>2012-10-28T13:55:48Z</time>
      </trkpt>
      <trkpt lat="46.2408" lon="3.15051">
        <ele>281</ele>
        <time>2012-10-28T13:55:57Z</time>
      </trkpt>
      <trkpt lat="46.24072" lon="3.15057">
        <ele>281</ele>
        <time>2012-10-28T13:56:06Z</time>
      </trkpt>
      <trkpt lat="46.24065" lon="3.15073">
        <ele>282</ele>
        <time>2012-10-28T13:56:23Z</time>
      </trkpt>
      <trkpt lat="46.24054" lon="3.15085">
        <ele>282</ele>
        <time>2012-10-28T13:56:37Z</time>
      </trkpt>
      <trkpt lat="46.24049" lon="3.15097">
        <ele>282</ele>
        <time>2012-10-28T13:56:42Z</time>
      </trkpt>
      <trkpt lat="46.24038" lon="3.15101">
        <ele>282</ele>
        <time>2012-10-28T13:56:50Z</time>
      </trkpt>
      <trkpt lat="46.24028" lon="3.151">
        <ele>282</ele>
        <time>2012-10-28T13:56:57Z</time>
      </trkpt>
      <trkpt lat="46.24015" lon="3.15097">
        <ele>282</ele>
        <time>2012-10-28T13:57:03Z</time>
      </trkpt>
      <trkpt lat="46.24005" lon="3.15096">
        <ele>281</ele>
        <time>2012-10-28T13:57:08Z</time>
      </trkpt>
      <trkpt lat="46.23997" lon="3.15087">
        <ele>282</ele>
        <time>2012-10-28T13:57:38Z</time>
      </trkpt>
      <trkpt lat="46.23988" lon="3.15084">
        <ele>282</ele>
        <time>2012-10-28T13:57:45Z</time>
      </trkpt>
      <trkpt lat="46.23978" lon="3.15083">
        <ele>281</ele>
        <time>2012-10-28T13:57:49Z</time>
      </trkpt>
      <trkpt lat="46.2397" lon="3.15074">
        <ele>281</ele>
        <time>2012-10-28T13:57:57Z</time>
      </trkpt>
      <trkpt lat="46.23967" lon="3.15069">
        <ele>283</ele>
        <time>2012-10-28T13:58:13Z</time>
      </trkpt>
      <trkpt lat="46.23963" lon="3.15065">
        <ele>283</ele>
        <time>2012-10-28T13:58:24Z</time>
      </trkpt>
      <trkpt lat="46.23961" lon="3.15049">
        <ele>283</ele>
        <time>2012-10-28T13:58:32Z</time>
      </trkpt>
      <trkpt lat="46.23958" lon="3.15037">
        <ele>283</ele>
        <time>2012-10-28T13:58:34Z</time>
      </trkpt>
      <trkpt lat="46.23953" lon="3.15024">
        <ele>282</ele>
        <time>2012-10-28T13:58:37Z</time>
      </trkpt>
      <trkpt lat="46.23947" lon="3.15012">
        <ele>282</ele>
        <time>2012-10-28T13:58:42Z</time>
      </trkpt>
      <trkpt lat="46.23937" lon="3.15002">
        <ele>282</ele>
        <time>2012-10-28T13:58:55Z</time>
      </trkpt>
      <trkpt lat="46.23929" lon="3.14994">
        <ele>282</ele>
        <time>2012-10-28T13:59:04Z</time>
      </trkpt>
      <trkpt lat="46.2392" lon="3.14981">
        <ele>282</ele>
        <time>2012-10-28T13:59:10Z</time>
      </trkpt>
      <trkpt lat="46.23913" lon="3.1497">
        <ele>282</ele>
        <time>2012-10-28T13:59:16Z</time>
      </trkpt>
      <trkpt lat="46.23907" lon="3.1496">
        <ele>281</ele>
        <time>2012-10-28T13:59:24Z</time>
      </trkpt>
      <trkpt lat="46.23898" lon="3.14954">
        <ele>282</ele>
        <time>2012-10-28T13:59:35Z</time>
      </trkpt>
      <trkpt lat="46.23889" lon="3.14948">
        <ele>282</ele>
        <time>2012-10-28T13:59:41Z</time>
      </trkpt>
      <trkpt lat="46.2388" lon="3.14959">
        <ele>281</ele>
        <time>2012-10-28T13:59:55Z</time>
      </trkpt>
      <trkpt lat="46.23882" lon="3.14956">
        <ele>285</ele>
        <time>2012-10-28T14:00:30Z</time>
      </trkpt>
      <trkpt lat="46.23879" lon="3.14951">
        <ele>285</ele>
        <time>2012-10-28T14:00:42Z</time>
      </trkpt>
      <trkpt lat="46.23869" lon="3.14938">
        <ele>285</ele>
        <time>2012-10-28T14:00:55Z</time>
      </trkpt>
      <trkpt lat="46.23859" lon="3.14928">
        <ele>289</ele>
        <time>2012-10-28T14:01:10Z</time>
      </trkpt>
      <trkpt lat="46.2385" lon="3.14922">
        <ele>288</ele>
        <time>2012-10-28T14:01:19Z</time>
      </trkpt>
      <trkpt lat="46.23843" lon="3.14913">
        <ele>288</ele>
        <time>2012-10-28T14:01:27Z</time>
      </trkpt>
      <trkpt lat="46.2384" lon="3.14898">
        <ele>285</ele>
        <time>2012-10-28T14:01:47Z</time>
      </trkpt>
      <trkpt lat="46.23833" lon="3.14889">
        <ele>282</ele>
        <time>2012-10-28T14:02:04Z</time>
      </trkpt>
      <trkpt lat="46.2383" lon="3.14881">
        <ele>286</ele>
        <time>2012-10-28T14:02:29Z</time>
      </trkpt>
      <trkpt lat="46.23825" lon="3.14877">
        <ele>289</ele>
        <time>2012-10-28T14:02:49Z</time>
      </trkpt>
      <trkpt lat="46.23821" lon="3.14873">
        <ele>291</ele>
        <time>2012-10-28T14:02:56Z</time>
      </trkpt>
      <trkpt lat="46.2382" lon="3.14858">
        <ele>292</ele>
        <time>2012-10-28T14:03:56Z</time>
      </trkpt>
      <trkpt lat="46.23821" lon="3.14844">
        <ele>291</ele>
        <time>2012-10-28T14:04:00Z</time>
      </trkpt>
      <trkpt lat="46.23829" lon="3.14831">
        <ele>289</ele>
        <time>2012-10-28T14:04:19Z</time>
      </trkpt>
      <trkpt lat="46.23839" lon="3.14817">
        <ele>289</ele>
        <time>2012-10-28T14:04:40Z</time>
      </trkpt>
      <trkpt lat="46.23843" lon="3.14813">
        <ele>289</ele>
        <time>2012-10-28T14:04:52Z</time>
      </trkpt>
      <trkpt lat="46.23847" lon="3.148">
        <ele>292</ele>
        <time>2012-10-28T14:05:00Z</time>
      </trkpt>
      <trkpt lat="46.23842" lon="3.14789">
        <ele>296</ele>
        <time>2012-10-28T14:05:08Z</time>
      </trkpt>
      <trkpt lat="46.23831" lon="3.1476">
        <ele>306</ele>
        <time>2012-10-28T14:05:29Z</time>
      </trkpt>
      <trkpt lat="46.23832" lon="3.14746">
        <ele>306</ele>
        <time>2012-10-28T14:05:37Z</time>
      </trkpt>
      <trkpt lat="46.23834" lon="3.14735">
        <ele>305</ele>
        <time>2012-10-28T14:05:44Z</time>
      </trkpt>
      <trkpt lat="46.23837" lon="3.14721">
        <ele>306</ele>
        <time>2012-10-28T14:05:54Z</time>
      </trkpt>
      <trkpt lat="46.23839" lon="3.14714">
        <ele>306</ele>
        <time>2012-10-28T14:05:58Z</time>
      </trkpt>
      <trkpt lat="46.23841" lon="3.14706">
        <ele>306</ele>
        <time>2012-10-28T14:06:02Z</time>
      </trkpt>
      <trkpt lat="46.23843" lon="3.147">
        <ele>307</ele>
        <time>2012-10-28T14:06:05Z</time>
      </trkpt>
      <trkpt lat="46.23844" lon="3.14694">
        <ele>309</ele>
        <time>2012-10-28T14:06:09Z</time>
      </trkpt>
      <trkpt lat="46.23845" lon="3.14687">
        <ele>311</ele>
        <time>2012-10-28T14:06:13Z</time>
      </trkpt>
      <trkpt lat="46.23846" lon="3.14677">
        <ele>313</ele>
        <time>2012-10-28T14:06:19Z</time>
      </trkpt>
      <trkpt lat="46.23849" lon="3.14668">
        <ele>315</ele>
        <time>2012-10-28T14:06:25Z</time>
      </trkpt>
      <trkpt lat="46.23851" lon="3.1466">
        <ele>315</ele>
        <time>2012-10-28T14:06:30Z</time>
      </trkpt>
      <trkpt lat="46.23851" lon="3.14652">
        <ele>314</ele>
        <time>2012-10-28T14:06:34Z</time>
      </trkpt>
      <trkpt lat="46.2385" lon="3.14646">
        <ele>314</ele>
        <time>2012-10-28T14:06:37Z</time>
      </trkpt>
      <trkpt lat="46.23852" lon="3.14639">
        <ele>313</ele>
        <time>2012-10-28T14:06:44Z</time>
      </trkpt>
      <trkpt lat="46.23856" lon="3.14633">
        <ele>312</ele>
        <time>2012-10-28T14:06:48Z</time>
      </trkpt>
      <trkpt lat="46.23862" lon="3.14625">
        <ele>312</ele>
        <time>2012-10-28T14:06:53Z</time>
      </trkpt>
      <trkpt lat="46.23865" lon="3.1462">
        <ele>312</ele>
        <time>2012-10-28T14:06:57Z</time>
      </trkpt>
      <trkpt lat="46.23869" lon="3.14615">
        <ele>313</ele>
        <time>2012-10-28T14:07:01Z</time>
      </trkpt>
      <trkpt lat="46.23873" lon="3.1461">
        <ele>314</ele>
        <time>2012-10-28T14:07:05Z</time>
      </trkpt>
      <trkpt lat="46.23878" lon="3.14606">
        <ele>314</ele>
        <time>2012-10-28T14:07:10Z</time>
      </trkpt>
      <trkpt lat="46.23882" lon="3.14601">
        <ele>314</ele>
        <time>2012-10-28T14:07:14Z</time>
      </trkpt>
      <trkpt lat="46.23886" lon="3.14595">
        <ele>315</ele>
        <time>2012-10-28T14:07:18Z</time>
      </trkpt>
      <trkpt lat="46.23889" lon="3.14587">
        <ele>315</ele>
        <time>2012-10-28T14:07:23Z</time>
      </trkpt>
      <trkpt lat="46.23895" lon="3.14576">
        <ele>315</ele>
        <time>2012-10-28T14:07:31Z</time>
      </trkpt>
      <trkpt lat="46.23903" lon="3.14567">
        <ele>315</ele>
        <time>2012-10-28T14:07:39Z</time>
      </trkpt>
      <trkpt lat="46.23907" lon="3.14555">
        <ele>315</ele>
        <time>2012-10-28T14:07:47Z</time>
      </trkpt>
      <trkpt lat="46.2391" lon="3.14548">
        <ele>314</ele>
        <time>2012-10-28T14:07:52Z</time>
      </trkpt>
      <trkpt lat="46.23913" lon="3.14543">
        <ele>314</ele>
        <time>2012-10-28T14:07:57Z</time>
      </trkpt>
      <trkpt lat="46.23917" lon="3.14536">
        <ele>314</ele>
        <time>2012-10-28T14:08:02Z</time>
      </trkpt>
      <trkpt lat="46.23923" lon="3.14528">
        <ele>315</ele>
        <time>2012-10-28T14:08:08Z</time>
      </trkpt>
      <trkpt lat="46.23928" lon="3.14523">
        <ele>317</ele>
        <time>2012-10-28T14:08:13Z</time>
      </trkpt>
      <trkpt lat="46.23932" lon="3.14518">
        <ele>316</ele>
        <time>2012-10-28T14:08:17Z</time>
      </trkpt>
      <trkpt lat="46.23938" lon="3.14513">
        <ele>317</ele>
        <time>2012-10-28T14:08:22Z</time>
      </trkpt>
      <trkpt lat="46.23942" lon="3.14507">
        <ele>317</ele>
        <time>2012-10-28T14:08:28Z</time>
      </trkpt>
      <trkpt lat="46.23946" lon="3.14502">
        <ele>317</ele>
        <time>2012-10-28T14:08:31Z</time>
      </trkpt>
      <trkpt lat="46.2395" lon="3.14498">
        <ele>317</ele>
        <time>2012-10-28T14:08:34Z</time>
      </trkpt>
      <trkpt lat="46.23953" lon="3.14493">
        <ele>317</ele>
        <time>2012-10-28T14:08:39Z</time>
      </trkpt>
      <trkpt lat="46.23956" lon="3.14486">
        <ele>317</ele>
        <time>2012-10-28T14:08:44Z</time>
      </trkpt>
      <trkpt lat="46.23962" lon="3.14475">
        <ele>317</ele>
        <time>2012-10-28T14:08:53Z</time>
      </trkpt>
      <trkpt lat="46.23966" lon="3.14468">
        <ele>318</ele>
        <time>2012-10-28T14:08:58Z</time>
      </trkpt>
      <trkpt lat="46.23969" lon="3.14463">
        <ele>318</ele>
        <time>2012-10-28T14:09:01Z</time>
      </trkpt>
      <trkpt lat="46.23972" lon="3.14458">
        <ele>317</ele>
        <time>2012-10-28T14:09:05Z</time>
      </trkpt>
      <trkpt lat="46.23976" lon="3.14454">
        <ele>317</ele>
        <time>2012-10-28T14:09:09Z</time>
      </trkpt>
      <trkpt lat="46.2398" lon="3.14449">
        <ele>317</ele>
        <time>2012-10-28T14:09:13Z</time>
      </trkpt>
      <trkpt lat="46.23984" lon="3.14444">
        <ele>318</ele>
        <time>2012-10-28T14:09:17Z</time>
      </trkpt>
      <trkpt lat="46.23988" lon="3.14437">
        <ele>319</ele>
        <time>2012-10-28T14:09:22Z</time>
      </trkpt>
      <trkpt lat="46.23991" lon="3.14431">
        <ele>318</ele>
        <time>2012-10-28T14:09:26Z</time>
      </trkpt>
      <trkpt lat="46.23992" lon="3.14427">
        <ele>317</ele>
        <time>2012-10-28T14:09:34Z</time>
      </trkpt>
      <trkpt lat="46.23993" lon="3.14423">
        <ele>318</ele>
        <time>2012-10-28T14:09:55Z</time>
      </trkpt>
      <trkpt lat="46.23997" lon="3.14419">
        <ele>317</ele>
        <time>2012-10-28T14:10:01Z</time>
      </trkpt>
      <trkpt lat="46.24006" lon="3.1441">
        <ele>316</ele>
        <time>2012-10-28T14:10:09Z</time>
      </trkpt>
      <trkpt lat="46.24016" lon="3.14415">
        <ele>315</ele>
        <time>2012-10-28T14:10:18Z</time>
      </trkpt>
      <trkpt lat="46.24019" lon="3.14419">
        <ele>315</ele>
        <time>2012-10-28T14:10:21Z</time>
      </trkpt>
      <trkpt lat="46.24023" lon="3.14422">
        <ele>315</ele>
        <time>2012-10-28T14:10:25Z</time>
      </trkpt>
      <trkpt lat="46.24031" lon="3.14428">
        <ele>317</ele>
        <time>2012-10-28T14:10:31Z</time>
      </trkpt>
      <trkpt lat="46.24037" lon="3.14434">
        <ele>317</ele>
        <time>2012-10-28T14:10:37Z</time>
      </trkpt>
      <trkpt lat="46.24041" lon="3.14437">
        <ele>318</ele>
        <time>2012-10-28T14:10:41Z</time>
      </trkpt>
      <trkpt lat="46.24045" lon="3.14442">
        <ele>319</ele>
        <time>2012-10-28T14:10:45Z</time>
      </trkpt>
      <trkpt lat="46.24049" lon="3.14446">
        <ele>319</ele>
        <time>2012-10-28T14:10:49Z</time>
      </trkpt>
      <trkpt lat="46.24054" lon="3.14452">
        <ele>319</ele>
        <time>2012-10-28T14:10:53Z</time>
      </trkpt>
      <trkpt lat="46.24058" lon="3.14458">
        <ele>320</ele>
        <time>2012-10-28T14:10:57Z</time>
      </trkpt>
      <trkpt lat="46.24066" lon="3.14461">
        <ele>320</ele>
        <time>2012-10-28T14:11:04Z</time>
      </trkpt>
      <trkpt lat="46.2407" lon="3.14464">
        <ele>321</ele>
        <time>2012-10-28T14:11:09Z</time>
      </trkpt>
      <trkpt lat="46.24076" lon="3.14467">
        <ele>322</ele>
        <time>2012-10-28T14:11:14Z</time>
      </trkpt>
      <trkpt lat="46.2408" lon="3.14471">
        <ele>322</ele>
        <time>2012-10-28T14:11:19Z</time>
      </trkpt>
      <trkpt lat="46.24087" lon="3.14474">
        <ele>322</ele>
        <time>2012-10-28T14:11:24Z</time>
      </trkpt>
      <trkpt lat="46.24093" lon="3.14475">
        <ele>321</ele>
        <time>2012-10-28T14:11:28Z</time>
      </trkpt>
      <trkpt lat="46.24099" lon="3.14478">
        <ele>319</ele>
        <time>2012-10-28T14:11:33Z</time>
      </trkpt>
      <trkpt lat="46.24103" lon="3.14479">
        <ele>318</ele>
        <time>2012-10-28T14:11:36Z</time>
      </trkpt>
      <trkpt lat="46.24108" lon="3.1448">
        <ele>318</ele>
        <time>2012-10-28T14:11:39Z</time>
      </trkpt>
      <trkpt lat="46.24117" lon="3.14481">
        <ele>318</ele>
        <time>2012-10-28T14:11:47Z</time>
      </trkpt>
      <trkpt lat="46.24124" lon="3.14482">
        <ele>319</ele>
        <time>2012-10-28T14:11:53Z</time>
      </trkpt>
      <trkpt lat="46.24133" lon="3.14485">
        <ele>321</ele>
        <time>2012-10-28T14:12:02Z</time>
      </trkpt>
      <trkpt lat="46.24138" lon="3.14487">
        <ele>322</ele>
        <time>2012-10-28T14:12:05Z</time>
      </trkpt>
      <trkpt lat="46.24142" lon="3.14487">
        <ele>323</ele>
        <time>2012-10-28T14:12:09Z</time>
      </trkpt>
      <trkpt lat="46.24147" lon="3.14489">
        <ele>323</ele>
        <time>2012-10-28T14:12:11Z</time>
      </trkpt>
      <trkpt lat="46.24152" lon="3.14489">
        <ele>324</ele>
        <time>2012-10-28T14:12:15Z</time>
      </trkpt>
      <trkpt lat="46.24159" lon="3.14491">
        <ele>325</ele>
        <time>2012-10-28T14:12:21Z</time>
      </trkpt>
      <trkpt lat="46.24163" lon="3.14493">
        <ele>325</ele>
        <time>2012-10-28T14:12:25Z</time>
      </trkpt>
      <trkpt lat="46.24168" lon="3.14492">
        <ele>325</ele>
        <time>2012-10-28T14:12:29Z</time>
      </trkpt>
      <trkpt lat="46.24174" lon="3.14493">
        <ele>326</ele>
        <time>2012-10-28T14:12:34Z</time>
      </trkpt>
      <trkpt lat="46.2418" lon="3.14494">
        <ele>328</ele>
        <time>2012-10-28T14:12:39Z</time>
      </trkpt>
      <trkpt lat="46.24186" lon="3.14496">
        <ele>329</ele>
        <time>2012-10-28T14:12:43Z</time>
      </trkpt>
      <trkpt lat="46.24196" lon="3.14497">
        <ele>328</ele>
        <time>2012-10-28T14:12:51Z</time>
      </trkpt>
      <trkpt lat="46.24198" lon="3.14502">
        <ele>327</ele>
        <time>2012-10-28T14:12:54Z</time>
      </trkpt>
      <trkpt lat="46.24201" lon="3.14509">
        <ele>326</ele>
        <time>2012-10-28T14:13:01Z</time>
      </trkpt>
      <trkpt lat="46.24202" lon="3.14517">
        <ele>327</ele>
        <time>2012-10-28T14:13:05Z</time>
      </trkpt>
      <trkpt lat="46.24205" lon="3.14524">
        <ele>328</ele>
        <time>2012-10-28T14:13:09Z</time>
      </trkpt>
      <trkpt lat="46.24207" lon="3.1453">
        <ele>329</ele>
        <time>2012-10-28T14:13:13Z</time>
      </trkpt>
      <trkpt lat="46.24209" lon="3.14537">
        <ele>329</ele>
        <time>2012-10-28T14:13:17Z</time>
      </trkpt>
      <trkpt lat="46.2421" lon="3.14545">
        <ele>328</ele>
        <time>2012-10-28T14:13:21Z</time>
      </trkpt>
      <trkpt lat="46.24212" lon="3.14552">
        <ele>328</ele>
        <time>2012-10-28T14:13:26Z</time>
      </trkpt>
      <trkpt lat="46.24214" lon="3.14559">
        <ele>327</ele>
        <time>2012-10-28T14:13:29Z</time>
      </trkpt>
      <trkpt lat="46.24216" lon="3.14569">
        <ele>328</ele>
        <time>2012-10-28T14:13:35Z</time>
      </trkpt>
      <trkpt lat="46.24218" lon="3.14576">
        <ele>329</ele>
        <time>2012-10-28T14:13:40Z</time>
      </trkpt>
      <trkpt lat="46.2422" lon="3.14583">
        <ele>332</ele>
        <time>2012-10-28T14:13:45Z</time>
      </trkpt>
      <trkpt lat="46.24223" lon="3.14592">
        <ele>335</ele>
        <time>2012-10-28T14:13:51Z</time>
      </trkpt>
      <trkpt lat="46.24226" lon="3.14599">
        <ele>334</ele>
        <time>2012-10-28T14:13:55Z</time>
      </trkpt>
      <trkpt lat="46.24227" lon="3.14606">
        <ele>334</ele>
        <time>2012-10-28T14:13:58Z</time>
      </trkpt>
      <trkpt lat="46.24229" lon="3.14614">
        <ele>334</ele>
        <time>2012-10-28T14:14:02Z</time>
      </trkpt>
      <trkpt lat="46.24232" lon="3.14623">
        <ele>334</ele>
        <time>2012-10-28T14:14:07Z</time>
      </trkpt>
      <trkpt lat="46.24235" lon="3.14633">
        <ele>334</ele>
        <time>2012-10-28T14:14:14Z</time>
      </trkpt>
      <trkpt lat="46.24238" lon="3.1464">
        <ele>335</ele>
        <time>2012-10-28T14:14:19Z</time>
      </trkpt>
      <trkpt lat="46.2424" lon="3.14647">
        <ele>336</ele>
        <time>2012-10-28T14:14:23Z</time>
      </trkpt>
      <trkpt lat="46.24243" lon="3.14653">
        <ele>336</ele>
        <time>2012-10-28T14:14:27Z</time>
      </trkpt>
      <trkpt lat="46.24245" lon="3.14661">
        <ele>335</ele>
        <time>2012-10-28T14:14:32Z</time>
      </trkpt>
      <trkpt lat="46.24247" lon="3.14669">
        <ele>334</ele>
        <time>2012-10-28T14:14:36Z</time>
      </trkpt>
      <trkpt lat="46.24249" lon="3.14676">
        <ele>333</ele>
        <time>2012-10-28T14:14:40Z</time>
      </trkpt>
      <trkpt lat="46.24251" lon="3.14683">
        <ele>334</ele>
        <time>2012-10-28T14:14:45Z</time>
      </trkpt>
      <trkpt lat="46.24254" lon="3.1469">
        <ele>335</ele>
        <time>2012-10-28T14:14:49Z</time>
      </trkpt>
      <trkpt lat="46.24255" lon="3.14696">
        <ele>336</ele>
        <time>2012-10-28T14:14:52Z</time>
      </trkpt>
      <trkpt lat="46.24258" lon="3.14703">
        <ele>338</ele>
        <time>2012-10-28T14:14:57Z</time>
      </trkpt>
      <trkpt lat="46.24261" lon="3.14708">
        <ele>339</ele>
        <time>2012-10-28T14:15:04Z</time>
      </trkpt>
      <trkpt lat="46.24266" lon="3.14709">
        <ele>340</ele>
        <time>2012-10-28T14:15:20Z</time>
      </trkpt>
      <trkpt lat="46.24269" lon="3.14713">
        <ele>338</ele>
        <time>2012-10-28T14:15:50Z</time>
      </trkpt>
      <trkpt lat="46.24273" lon="3.14715">
        <ele>338</ele>
        <time>2012-10-28T14:15:58Z</time>
      </trkpt>
      <trkpt lat="46.24278" lon="3.14715">
        <ele>339</ele>
        <time>2012-10-28T14:16:22Z</time>
      </trkpt>
      <trkpt lat="46.24288" lon="3.14713">
        <ele>341</ele>
        <time>2012-10-28T14:16:34Z</time>
      </trkpt>
      <trkpt lat="46.24294" lon="3.14714">
        <ele>340</ele>
        <time>2012-10-28T14:16:38Z</time>
      </trkpt>
      <trkpt lat="46.24299" lon="3.14713">
        <ele>339</ele>
        <time>2012-10-28T14:16:42Z</time>
      </trkpt>
      <trkpt lat="46.24305" lon="3.14714">
        <ele>338</ele>
        <time>2012-10-28T14:16:46Z</time>
      </trkpt>
      <trkpt lat="46.2431" lon="3.14713">
        <ele>338</ele>
        <time>2012-10-28T14:16:50Z</time>
      </trkpt>
      <trkpt lat="46.24316" lon="3.14712">
        <ele>337</ele>
        <time>2012-10-28T14:16:55Z</time>
      </trkpt>
      <trkpt lat="46.24323" lon="3.14711">
        <ele>336</ele>
        <time>2012-10-28T14:17:00Z</time>
      </trkpt>
      <trkpt lat="46.24329" lon="3.14711">
        <ele>336</ele>
        <time>2012-10-28T14:17:05Z</time>
      </trkpt>
      <trkpt lat="46.24334" lon="3.14711">
        <ele>337</ele>
        <time>2012-10-28T14:17:10Z</time>
      </trkpt>
      <trkpt lat="46.2434" lon="3.14712">
        <ele>338</ele>
        <time>2012-10-28T14:17:14Z</time>
      </trkpt>
      <trkpt lat="46.24344" lon="3.14711">
        <ele>338</ele>
        <time>2012-10-28T14:17:17Z</time>
      </trkpt>
      <trkpt lat="46.2435" lon="3.14711">
        <ele>338</ele>
        <time>2012-10-28T14:17:21Z</time>
      </trkpt>
      <trkpt lat="46.24355" lon="3.14711">
        <ele>338</ele>
        <time>2012-10-28T14:17:24Z</time>
      </trkpt>
      <trkpt lat="46.2436" lon="3.14711">
        <ele>338</ele>
        <time>2012-10-28T14:17:27Z</time>
      </trkpt>
      <trkpt lat="46.24365" lon="3.14712">
        <ele>338</ele>
        <time>2012-10-28T14:17:30Z</time>
      </trkpt>
      <trkpt lat="46.24371" lon="3.14711">
        <ele>337</ele>
        <time>2012-10-28T14:17:35Z</time>
      </trkpt>
      <trkpt lat="46.24376" lon="3.1471">
        <ele>335</ele>
        <time>2012-10-28T14:17:38Z</time>
      </trkpt>
      <trkpt lat="46.24381" lon="3.14709">
        <ele>334</ele>
        <time>2012-10-28T14:17:43Z</time>
      </trkpt>
      <trkpt lat="46.24386" lon="3.14708">
        <ele>334</ele>
        <time>2012-10-28T14:17:47Z</time>
      </trkpt>
      <trkpt lat="46.24391" lon="3.14708">
        <ele>334</ele>
        <time>2012-10-28T14:17:52Z</time>
      </trkpt>
      <trkpt lat="46.24397" lon="3.14708">
        <ele>333</ele>
        <time>2012-10-28T14:17:56Z</time>
      </trkpt>
      <trkpt lat="46.24402" lon="3.14707">
        <ele>333</ele>
        <time>2012-10-28T14:17:59Z</time>
      </trkpt>
      <trkpt lat="46.24408" lon="3.14706">
        <ele>334</ele>
        <time>2012-10-28T14:18:03Z</time>
      </trkpt>
      <trkpt lat="46.24417" lon="3.14702">
        <ele>335</ele>
        <time>2012-10-28T14:18:11Z</time>
      </trkpt>
      <trkpt lat="46.24421" lon="3.147">
        <ele>336</ele>
        <time>2012-10-28T14:18:14Z</time>
      </trkpt>
      <trkpt lat="46.24425" lon="3.14697">
        <ele>338</ele>
        <time>2012-10-28T14:18:18Z</time>
      </trkpt>
      <trkpt lat="46.24431" lon="3.14694">
        <ele>340</ele>
        <time>2012-10-28T14:18:22Z</time>
      </trkpt>
      <trkpt lat="46.24435" lon="3.1469">
        <ele>339</ele>
        <time>2012-10-28T14:18:26Z</time>
      </trkpt>
      <trkpt lat="46.24439" lon="3.14687">
        <ele>339</ele>
        <time>2012-10-28T14:18:30Z</time>
      </trkpt>
      <trkpt lat="46.24449" lon="3.14679">
        <ele>338</ele>
        <time>2012-10-28T14:18:39Z</time>
      </trkpt>
      <trkpt lat="46.24456" lon="3.1467">
        <ele>339</ele>
        <time>2012-10-28T14:18:46Z</time>
      </trkpt>
      <trkpt lat="46.24459" lon="3.14664">
        <ele>340</ele>
        <time>2012-10-28T14:18:49Z</time>
      </trkpt>
      <trkpt lat="46.24463" lon="3.1466">
        <ele>342</ele>
        <time>2012-10-28T14:18:53Z</time>
      </trkpt>
      <trkpt lat="46.24465" lon="3.14653">
        <ele>344</ele>
        <time>2012-10-28T14:18:58Z</time>
      </trkpt>
      <trkpt lat="46.24469" lon="3.14647">
        <ele>345</ele>
        <time>2012-10-28T14:19:01Z</time>
      </trkpt>
      <trkpt lat="46.24471" lon="3.1464">
        <ele>344</ele>
        <time>2012-10-28T14:19:06Z</time>
      </trkpt>
      <trkpt lat="46.24474" lon="3.14633">
        <ele>343</ele>
        <time>2012-10-28T14:19:10Z</time>
      </trkpt>
      <trkpt lat="46.24477" lon="3.14626">
        <ele>343</ele>
        <time>2012-10-28T14:19:15Z</time>
      </trkpt>
      <trkpt lat="46.2448" lon="3.14621">
        <ele>342</ele>
        <time>2012-10-28T14:19:18Z</time>
      </trkpt>
      <trkpt lat="46.24485" lon="3.14617">
        <ele>343</ele>
        <time>2012-10-28T14:19:23Z</time>
      </trkpt>
      <trkpt lat="46.24491" lon="3.14611">
        <ele>341</ele>
        <time>2012-10-28T14:19:28Z</time>
      </trkpt>
      <trkpt lat="46.24496" lon="3.14609">
        <ele>338</ele>
        <time>2012-10-28T14:19:32Z</time>
      </trkpt>
      <trkpt lat="46.245" lon="3.14605">
        <ele>338</ele>
        <time>2012-10-28T14:19:36Z</time>
      </trkpt>
      <trkpt lat="46.24501" lon="3.14597">
        <ele>338</ele>
        <time>2012-10-28T14:19:40Z</time>
      </trkpt>
      <trkpt lat="46.24499" lon="3.14591">
        <ele>339</ele>
        <time>2012-10-28T14:19:43Z</time>
      </trkpt>
      <trkpt lat="46.24497" lon="3.14583">
        <ele>340</ele>
        <time>2012-10-28T14:19:46Z</time>
      </trkpt>
      <trkpt lat="46.24496" lon="3.14575">
        <ele>340</ele>
        <time>2012-10-28T14:19:50Z</time>
      </trkpt>
      <trkpt lat="46.24494" lon="3.14569">
        <ele>340</ele>
        <time>2012-10-28T14:19:53Z</time>
      </trkpt>
      <trkpt lat="46.24493" lon="3.14562">
        <ele>339</ele>
        <time>2012-10-28T14:19:57Z</time>
      </trkpt>
      <trkpt lat="46.2449" lon="3.14556">
        <ele>338</ele>
        <time>2012-10-28T14:20:02Z</time>
      </trkpt>
      <trkpt lat="46.24488" lon="3.1455">
        <ele>338</ele>
        <time>2012-10-28T14:20:05Z</time>
      </trkpt>
      <trkpt lat="46.24485" lon="3.14543">
        <ele>338</ele>
        <time>2012-10-28T14:20:09Z</time>
      </trkpt>
      <trkpt lat="46.24483" lon="3.14529">
        <ele>339</ele>
        <time>2012-10-28T14:20:15Z</time>
      </trkpt>
      <trkpt lat="46.24481" lon="3.14521">
        <ele>339</ele>
        <time>2012-10-28T14:20:20Z</time>
      </trkpt>
      <trkpt lat="46.2448" lon="3.14513">
        <ele>339</ele>
        <time>2012-10-28T14:20:25Z</time>
      </trkpt>
      <trkpt lat="46.24478" lon="3.14497">
        <ele>337</ele>
        <time>2012-10-28T14:20:33Z</time>
      </trkpt>
      <trkpt lat="46.24475" lon="3.14484">
        <ele>336</ele>
        <time>2012-10-28T14:20:40Z</time>
      </trkpt>
      <trkpt lat="46.24474" lon="3.14471">
        <ele>336</ele>
        <time>2012-10-28T14:20:46Z</time>
      </trkpt>
      <trkpt lat="46.24473" lon="3.14456">
        <ele>338</ele>
        <time>2012-10-28T14:20:54Z</time>
      </trkpt>
      <trkpt lat="46.24473" lon="3.1444">
        <ele>338</ele>
        <time>2012-10-28T14:21:02Z</time>
      </trkpt>
      <trkpt lat="46.24472" lon="3.14426">
        <ele>335</ele>
        <time>2012-10-28T14:21:08Z</time>
      </trkpt>
      <trkpt lat="46.24469" lon="3.14413">
        <ele>336</ele>
        <time>2012-10-28T14:21:16Z</time>
      </trkpt>
      <trkpt lat="46.24466" lon="3.14399">
        <ele>338</ele>
        <time>2012-10-28T14:21:24Z</time>
      </trkpt>
      <trkpt lat="46.24466" lon="3.14385">
        <ele>338</ele>
        <time>2012-10-28T14:21:32Z</time>
      </trkpt>
      <trkpt lat="46.24465" lon="3.14371">
        <ele>339</ele>
        <time>2012-10-28T14:21:40Z</time>
      </trkpt>
      <trkpt lat="46.24461" lon="3.14358">
        <ele>341</ele>
        <time>2012-10-28T14:21:48Z</time>
      </trkpt>
      <trkpt lat="46.24459" lon="3.14344">
        <ele>343</ele>
        <time>2012-10-28T14:21:56Z</time>
      </trkpt>
      <trkpt lat="46.24458" lon="3.14331">
        <ele>345</ele>
        <time>2012-10-28T14:22:03Z</time>
      </trkpt>
      <trkpt lat="46.24457" lon="3.14316">
        <ele>344</ele>
        <time>2012-10-28T14:22:09Z</time>
      </trkpt>
      <trkpt lat="46.24457" lon="3.14303">
        <ele>342</ele>
        <time>2012-10-28T14:22:15Z</time>
      </trkpt>
      <trkpt lat="46.24459" lon="3.14293">
        <ele>342</ele>
        <time>2012-10-28T14:22:20Z</time>
      </trkpt>
      <trkpt lat="46.2446" lon="3.14287">
        <ele>342</ele>
        <time>2012-10-28T14:22:23Z</time>
      </trkpt>
      <trkpt lat="46.24461" lon="3.1428">
        <ele>341</ele>
        <time>2012-10-28T14:22:27Z</time>
      </trkpt>
      <trkpt lat="46.24464" lon="3.14274">
        <ele>340</ele>
        <time>2012-10-28T14:22:31Z</time>
      </trkpt>
      <trkpt lat="46.24467" lon="3.14267">
        <ele>340</ele>
        <time>2012-10-28T14:22:35Z</time>
      </trkpt>
      <trkpt lat="46.24473" lon="3.14255">
        <ele>341</ele>
        <time>2012-10-28T14:22:42Z</time>
      </trkpt>
      <trkpt lat="46.2448" lon="3.14246">
        <ele>342</ele>
        <time>2012-10-28T14:22:48Z</time>
      </trkpt>
      <trkpt lat="46.24483" lon="3.14241">
        <ele>343</ele>
        <time>2012-10-28T14:22:51Z</time>
      </trkpt>
      <trkpt lat="46.24486" lon="3.14226">
        <ele>343</ele>
        <time>2012-10-28T14:23:18Z</time>
      </trkpt>
      <trkpt lat="46.2449" lon="3.14213">
        <ele>341</ele>
        <time>2012-10-28T14:23:24Z</time>
      </trkpt>
      <trkpt lat="46.24495" lon="3.14202">
        <ele>341</ele>
        <time>2012-10-28T14:23:31Z</time>
      </trkpt>
      <trkpt lat="46.24498" lon="3.14187">
        <ele>341</ele>
        <time>2012-10-28T14:23:38Z</time>
      </trkpt>
      <trkpt lat="46.24497" lon="3.14173">
        <ele>342</ele>
        <time>2012-10-28T14:23:45Z</time>
      </trkpt>
      <trkpt lat="46.24497" lon="3.14165">
        <ele>341</ele>
        <time>2012-10-28T14:23:48Z</time>
      </trkpt>
      <trkpt lat="46.24497" lon="3.14156">
        <ele>341</ele>
        <time>2012-10-28T14:23:52Z</time>
      </trkpt>
      <trkpt lat="46.24497" lon="3.14149">
        <ele>342</ele>
        <time>2012-10-28T14:23:56Z</time>
      </trkpt>
      <trkpt lat="46.24496" lon="3.14142">
        <ele>342</ele>
        <time>2012-10-28T14:24:02Z</time>
      </trkpt>
      <trkpt lat="46.24497" lon="3.14134">
        <ele>342</ele>
        <time>2012-10-28T14:24:06Z</time>
      </trkpt>
      <trkpt lat="46.24498" lon="3.14127">
        <ele>341</ele>
        <time>2012-10-28T14:24:10Z</time>
      </trkpt>
      <trkpt lat="46.24499" lon="3.1412">
        <ele>341</ele>
        <time>2012-10-28T14:24:14Z</time>
      </trkpt>
      <trkpt lat="46.24499" lon="3.14113">
        <ele>341</ele>
        <time>2012-10-28T14:24:17Z</time>
      </trkpt>
      <trkpt lat="46.24499" lon="3.14106">
        <ele>341</ele>
        <time>2012-10-28T14:24:21Z</time>
      </trkpt>
      <trkpt lat="46.24498" lon="3.141">
        <ele>341</ele>
        <time>2012-10-28T14:24:24Z</time>
      </trkpt>
      <trkpt lat="46.24496" lon="3.14094">
        <ele>341</ele>
        <time>2012-10-28T14:24:28Z</time>
      </trkpt>
      <trkpt lat="46.24492" lon="3.1409">
        <ele>342</ele>
        <time>2012-10-28T14:24:32Z</time>
      </trkpt>
      <trkpt lat="46.24488" lon="3.14086">
        <ele>343</ele>
        <time>2012-10-28T14:24:38Z</time>
      </trkpt>
      <trkpt lat="46.24483" lon="3.14083">
        <ele>343</ele>
        <time>2012-10-28T14:24:44Z</time>
      </trkpt>
      <trkpt lat="46.24478" lon="3.14079">
        <ele>344</ele>
        <time>2012-10-28T14:24:49Z</time>
      </trkpt>
      <trkpt lat="46.24471" lon="3.14069">
        <ele>342</ele>
        <time>2012-10-28T14:24:56Z</time>
      </trkpt>
      <trkpt lat="46.24462" lon="3.14062">
        <ele>341</ele>
        <time>2012-10-28T14:25:03Z</time>
      </trkpt>
      <trkpt lat="46.24453" lon="3.14058">
        <ele>339</ele>
        <time>2012-10-28T14:25:11Z</time>
      </trkpt>
      <trkpt lat="46.24447" lon="3.14061">
        <ele>338</ele>
        <time>2012-10-28T14:25:16Z</time>
      </trkpt>
      <trkpt lat="46.24448" lon="3.14064">
        <ele>343</ele>
        <time>2012-10-28T14:25:40Z</time>
      </trkpt>
      <trkpt lat="46.24454" lon="3.14061">
        <ele>343</ele>
        <time>2012-10-28T14:25:49Z</time>
      </trkpt>
      <trkpt lat="46.24457" lon="3.14055">
        <ele>342</ele>
        <time>2012-10-28T14:25:53Z</time>
      </trkpt>
      <trkpt lat="46.24456" lon="3.14042">
        <ele>342</ele>
        <time>2012-10-28T14:26:03Z</time>
      </trkpt>
      <trkpt lat="46.24452" lon="3.1403">
        <ele>342</ele>
        <time>2012-10-28T14:26:11Z</time>
      </trkpt>
      <trkpt lat="46.24449" lon="3.14017">
        <ele>343</ele>
        <time>2012-10-28T14:26:15Z</time>
      </trkpt>
      <trkpt lat="46.24447" lon="3.14003">
        <ele>344</ele>
        <time>2012-10-28T14:26:22Z</time>
      </trkpt>
      <trkpt lat="46.24444" lon="3.1399">
        <ele>342</ele>
        <time>2012-10-28T14:26:28Z</time>
      </trkpt>
      <trkpt lat="46.24443" lon="3.13975">
        <ele>341</ele>
        <time>2012-10-28T14:26:37Z</time>
      </trkpt>
      <trkpt lat="46.24444" lon="3.13962">
        <ele>343</ele>
        <time>2012-10-28T14:26:43Z</time>
      </trkpt>
      <trkpt lat="46.24447" lon="3.13948">
        <ele>342</ele>
        <time>2012-10-28T14:26:51Z</time>
      </trkpt>
      <trkpt lat="46.24447" lon="3.13931">
        <ele>340</ele>
        <time>2012-10-28T14:27:01Z</time>
      </trkpt>
      <trkpt lat="46.24445" lon="3.13918">
        <ele>339</ele>
        <time>2012-10-28T14:27:08Z</time>
      </trkpt>
      <trkpt lat="46.24444" lon="3.13905">
        <ele>339</ele>
        <time>2012-10-28T14:27:15Z</time>
      </trkpt>
      <trkpt lat="46.24443" lon="3.13891">
        <ele>340</ele>
        <time>2012-10-28T14:27:24Z</time>
      </trkpt>
      <trkpt lat="46.24441" lon="3.13876">
        <ele>343</ele>
        <time>2012-10-28T14:27:31Z</time>
      </trkpt>
      <trkpt lat="46.24437" lon="3.13861">
        <ele>343</ele>
        <time>2012-10-28T14:27:38Z</time>
      </trkpt>
      <trkpt lat="46.24436" lon="3.13847">
        <ele>341</ele>
        <time>2012-10-28T14:27:47Z</time>
      </trkpt>
      <trkpt lat="46.24437" lon="3.13833">
        <ele>339</ele>
        <time>2012-10-28T14:27:59Z</time>
      </trkpt>
      <trkpt lat="46.24434" lon="3.13821">
        <ele>336</ele>
        <time>2012-10-28T14:28:14Z</time>
      </trkpt>
      <trkpt lat="46.2443" lon="3.13817">
        <ele>336</ele>
        <time>2012-10-28T14:28:17Z</time>
      </trkpt>
      <trkpt lat="46.24423" lon="3.13808">
        <ele>336</ele>
        <time>2012-10-28T14:28:22Z</time>
      </trkpt>
      <trkpt lat="46.24416" lon="3.13799">
        <ele>336</ele>
        <time>2012-10-28T14:28:29Z</time>
      </trkpt>
      <trkpt lat="46.24408" lon="3.13791">
        <ele>337</ele>
        <time>2012-10-28T14:28:34Z</time>
      </trkpt>
      <trkpt lat="46.244" lon="3.13784">
        <ele>338</ele>
        <time>2012-10-28T14:28:40Z</time>
      </trkpt>
      <trkpt lat="46.24393" lon="3.13776">
        <ele>340</ele>
        <time>2012-10-28T14:28:46Z</time>
      </trkpt>
      <trkpt lat="46.24382" lon="3.13769">
        <ele>341</ele>
        <time>2012-10-28T14:28:55Z</time>
      </trkpt>
      <trkpt lat="46.24373" lon="3.13761">
        <ele>342</ele>
        <time>2012-10-28T14:29:01Z</time>
      </trkpt>
      <trkpt lat="46.24363" lon="3.13755">
        <ele>342</ele>
        <time>2012-10-28T14:29:08Z</time>
      </trkpt>
      <trkpt lat="46.24354" lon="3.1375">
        <ele>344</ele>
        <time>2012-10-28T14:29:15Z</time>
      </trkpt>
      <trkpt lat="46.24346" lon="3.13744">
        <ele>346</ele>
        <time>2012-10-28T14:29:21Z</time>
      </trkpt>
      <trkpt lat="46.24334" lon="3.13734">
        <ele>341</ele>
        <time>2012-10-28T14:29:42Z</time>
      </trkpt>
      <trkpt lat="46.24326" lon="3.13727">
        <ele>339</ele>
        <time>2012-10-28T14:29:52Z</time>
      </trkpt>
      <trkpt lat="46.24317" lon="3.1372">
        <ele>335</ele>
        <time>2012-10-28T14:30:00Z</time>
      </trkpt>
      <trkpt lat="46.24309" lon="3.13715">
        <ele>333</ele>
        <time>2012-10-28T14:30:07Z</time>
      </trkpt>
      <trkpt lat="46.24302" lon="3.1371">
        <ele>331</ele>
        <time>2012-10-28T14:30:13Z</time>
      </trkpt>
      <trkpt lat="46.24297" lon="3.13707">
        <ele>329</ele>
        <time>2012-10-28T14:30:17Z</time>
      </trkpt>
      <trkpt lat="46.24293" lon="3.13701">
        <ele>329</ele>
        <time>2012-10-28T14:30:23Z</time>
      </trkpt>
      <trkpt lat="46.24289" lon="3.13696">
        <ele>328</ele>
        <time>2012-10-28T14:30:25Z</time>
      </trkpt>
      <trkpt lat="46.24284" lon="3.13691">
        <ele>329</ele>
        <time>2012-10-28T14:30:29Z</time>
      </trkpt>
      <trkpt lat="46.24279" lon="3.13687">
        <ele>330</ele>
        <time>2012-10-28T14:30:34Z</time>
      </trkpt>
      <trkpt lat="46.24274" lon="3.13681">
        <ele>330</ele>
        <time>2012-10-28T14:30:39Z</time>
      </trkpt>
      <trkpt lat="46.24265" lon="3.13675">
        <ele>329</ele>
        <time>2012-10-28T14:30:47Z</time>
      </trkpt>
      <trkpt lat="46.2426" lon="3.13674">
        <ele>330</ele>
        <time>2012-10-28T14:30:50Z</time>
      </trkpt>
      <trkpt lat="46.24254" lon="3.13672">
        <ele>329</ele>
        <time>2012-10-28T14:30:54Z</time>
      </trkpt>
      <trkpt lat="46.24249" lon="3.13668">
        <ele>329</ele>
        <time>2012-10-28T14:30:58Z</time>
      </trkpt>
      <trkpt lat="46.24243" lon="3.13664">
        <ele>328</ele>
        <time>2012-10-28T14:31:03Z</time>
      </trkpt>
      <trkpt lat="46.24238" lon="3.13662">
        <ele>328</ele>
        <time>2012-10-28T14:31:06Z</time>
      </trkpt>
      <trkpt lat="46.24234" lon="3.13659">
        <ele>328</ele>
        <time>2012-10-28T14:31:10Z</time>
      </trkpt>
      <trkpt lat="46.24228" lon="3.13656">
        <ele>328</ele>
        <time>2012-10-28T14:31:14Z</time>
      </trkpt>
      <trkpt lat="46.24223" lon="3.13655">
        <ele>327</ele>
        <time>2012-10-28T14:31:18Z</time>
      </trkpt>
      <trkpt lat="46.24218" lon="3.13652">
        <ele>325</ele>
        <time>2012-10-28T14:31:22Z</time>
      </trkpt>
      <trkpt lat="46.24212" lon="3.13649">
        <ele>323</ele>
        <time>2012-10-28T14:31:26Z</time>
      </trkpt>
      <trkpt lat="46.24208" lon="3.13646">
        <ele>322</ele>
        <time>2012-10-28T14:31:30Z</time>
      </trkpt>
      <trkpt lat="46.24204" lon="3.13643">
        <ele>322</ele>
        <time>2012-10-28T14:31:34Z</time>
      </trkpt>
      <trkpt lat="46.24199" lon="3.13641">
        <ele>323</ele>
        <time>2012-10-28T14:31:38Z</time>
      </trkpt>
      <trkpt lat="46.24194" lon="3.13637">
        <ele>324</ele>
        <time>2012-10-28T14:31:41Z</time>
      </trkpt>
      <trkpt lat="46.24186" lon="3.13633">
        <ele>325</ele>
        <time>2012-10-28T14:31:46Z</time>
      </trkpt>
      <trkpt lat="46.2418" lon="3.13631">
        <ele>325</ele>
        <time>2012-10-28T14:31:52Z</time>
      </trkpt>
      <trkpt lat="46.24174" lon="3.13627">
        <ele>323</ele>
        <time>2012-10-28T14:31:57Z</time>
      </trkpt>
      <trkpt lat="46.24169" lon="3.13623">
        <ele>321</ele>
        <time>2012-10-28T14:32:01Z</time>
      </trkpt>
      <trkpt lat="46.24163" lon="3.13621">
        <ele>319</ele>
        <time>2012-10-28T14:32:15Z</time>
      </trkpt>
      <trkpt lat="46.24159" lon="3.13619">
        <ele>319</ele>
        <time>2012-10-28T14:32:19Z</time>
      </trkpt>
      <trkpt lat="46.24154" lon="3.13617">
        <ele>319</ele>
        <time>2012-10-28T14:32:24Z</time>
      </trkpt>
      <trkpt lat="46.2415" lon="3.13613">
        <ele>319</ele>
        <time>2012-10-28T14:32:27Z</time>
      </trkpt>
      <trkpt lat="46.24144" lon="3.1361">
        <ele>320</ele>
        <time>2012-10-28T14:32:31Z</time>
      </trkpt>
      <trkpt lat="46.2414" lon="3.13608">
        <ele>319</ele>
        <time>2012-10-28T14:32:34Z</time>
      </trkpt>
      <trkpt lat="46.24135" lon="3.13605">
        <ele>319</ele>
        <time>2012-10-28T14:32:38Z</time>
      </trkpt>
      <trkpt lat="46.2413" lon="3.13602">
        <ele>319</ele>
        <time>2012-10-28T14:32:42Z</time>
      </trkpt>
      <trkpt lat="46.24126" lon="3.13598">
        <ele>319</ele>
        <time>2012-10-28T14:32:46Z</time>
      </trkpt>
      <trkpt lat="46.2412" lon="3.13597">
        <ele>320</ele>
        <time>2012-10-28T14:32:50Z</time>
      </trkpt>
      <trkpt lat="46.24116" lon="3.13594">
        <ele>320</ele>
        <time>2012-10-28T14:32:53Z</time>
      </trkpt>
      <trkpt lat="46.24111" lon="3.13591">
        <ele>319</ele>
        <time>2012-10-28T14:32:58Z</time>
      </trkpt>
      <trkpt lat="46.24105" lon="3.13589">
        <ele>318</ele>
        <time>2012-10-28T14:33:02Z</time>
      </trkpt>
      <trkpt lat="46.24098" lon="3.13586">
        <ele>317</ele>
        <time>2012-10-28T14:33:08Z</time>
      </trkpt>
      <trkpt lat="46.24092" lon="3.13584">
        <ele>318</ele>
        <time>2012-10-28T14:33:12Z</time>
      </trkpt>
      <trkpt lat="46.24087" lon="3.1358">
        <ele>317</ele>
        <time>2012-10-28T14:33:17Z</time>
      </trkpt>
      <trkpt lat="46.24082" lon="3.13576">
        <ele>317</ele>
        <time>2012-10-28T14:33:20Z</time>
      </trkpt>
      <trkpt lat="46.24078" lon="3.13572">
        <ele>318</ele>
        <time>2012-10-28T14:33:24Z</time>
      </trkpt>
      <trkpt lat="46.24073" lon="3.13567">
        <ele>320</ele>
        <time>2012-10-28T14:33:28Z</time>
      </trkpt>
      <trkpt lat="46.24069" lon="3.13566">
        <ele>318</ele>
        <time>2012-10-28T14:33:33Z</time>
      </trkpt>
      <trkpt lat="46.24064" lon="3.13564">
        <ele>316</ele>
        <time>2012-10-28T14:33:37Z</time>
      </trkpt>
      <trkpt lat="46.24059" lon="3.13562">
        <ele>315</ele>
        <time>2012-10-28T14:33:42Z</time>
      </trkpt>
      <trkpt lat="46.24051" lon="3.1356">
        <ele>315</ele>
        <time>2012-10-28T14:33:49Z</time>
      </trkpt>
      <trkpt lat="46.24045" lon="3.13558">
        <ele>314</ele>
        <time>2012-10-28T14:33:53Z</time>
      </trkpt>
      <trkpt lat="46.24039" lon="3.13556">
        <ele>313</ele>
        <time>2012-10-28T14:33:58Z</time>
      </trkpt>
      <trkpt lat="46.24035" lon="3.13555">
        <ele>312</ele>
        <time>2012-10-28T14:34:02Z</time>
      </trkpt>
      <trkpt lat="46.24027" lon="3.13551">
        <ele>312</ele>
        <time>2012-10-28T14:34:08Z</time>
      </trkpt>
      <trkpt lat="46.24022" lon="3.13548">
        <ele>311</ele>
        <time>2012-10-28T14:34:12Z</time>
      </trkpt>
      <trkpt lat="46.24017" lon="3.13545">
        <ele>311</ele>
        <time>2012-10-28T14:34:15Z</time>
      </trkpt>
      <trkpt lat="46.24009" lon="3.13542">
        <ele>310</ele>
        <time>2012-10-28T14:34:21Z</time>
      </trkpt>
      <trkpt lat="46.24004" lon="3.1354">
        <ele>309</ele>
        <time>2012-10-28T14:34:25Z</time>
      </trkpt>
      <trkpt lat="46.23999" lon="3.1354">
        <ele>308</ele>
        <time>2012-10-28T14:34:29Z</time>
      </trkpt>
      <trkpt lat="46.23995" lon="3.13539">
        <ele>308</ele>
        <time>2012-10-28T14:34:33Z</time>
      </trkpt>
      <trkpt lat="46.2399" lon="3.13538">
        <ele>309</ele>
        <time>2012-10-28T14:34:37Z</time>
      </trkpt>
      <trkpt lat="46.23985" lon="3.13536">
        <ele>310</ele>
        <time>2012-10-28T14:34:40Z</time>
      </trkpt>
      <trkpt lat="46.2398" lon="3.13533">
        <ele>311</ele>
        <time>2012-10-28T14:34:45Z</time>
      </trkpt>
      <trkpt lat="46.23975" lon="3.1353">
        <ele>311</ele>
        <time>2012-10-28T14:34:49Z</time>
      </trkpt>
      <trkpt lat="46.23965" lon="3.13526">
        <ele>310</ele>
        <time>2012-10-28T14:34:56Z</time>
      </trkpt>
      <trkpt lat="46.2396" lon="3.13528">
        <ele>310</ele>
        <time>2012-10-28T14:35:00Z</time>
      </trkpt>
      <trkpt lat="46.23956" lon="3.13531">
        <ele>310</ele>
        <time>2012-10-28T14:35:05Z</time>
      </trkpt>
      <trkpt lat="46.23952" lon="3.13537">
        <ele>311</ele>
        <time>2012-10-28T14:35:10Z</time>
      </trkpt>
      <trkpt lat="46.23949" lon="3.13542">
        <ele>311</ele>
        <time>2012-10-28T14:35:14Z</time>
      </trkpt>
      <trkpt lat="46.23947" lon="3.13549">
        <ele>310</ele>
        <time>2012-10-28T14:35:17Z</time>
      </trkpt>
      <trkpt lat="46.23946" lon="3.13556">
        <ele>309</ele>
        <time>2012-10-28T14:35:19Z</time>
      </trkpt>
      <trkpt lat="46.23946" lon="3.13563">
        <ele>309</ele>
        <time>2012-10-28T14:35:25Z</time>
      </trkpt>
      <trkpt lat="46.23944" lon="3.13572">
        <ele>308</ele>
        <time>2012-10-28T14:35:31Z</time>
      </trkpt>
      <trkpt lat="46.23941" lon="3.13584">
        <ele>305</ele>
        <time>2012-10-28T14:35:39Z</time>
      </trkpt>
      <trkpt lat="46.23941" lon="3.13593">
        <ele>303</ele>
        <time>2012-10-28T14:35:44Z</time>
      </trkpt>
      <trkpt lat="46.23945" lon="3.13607">
        <ele>300</ele>
        <time>2012-10-28T14:35:55Z</time>
      </trkpt>
      <trkpt lat="46.23943" lon="3.13621">
        <ele>298</ele>
        <time>2012-10-28T14:36:03Z</time>
      </trkpt>
      <trkpt lat="46.23943" lon="3.13631">
        <ele>295</ele>
        <time>2012-10-28T14:36:08Z</time>
      </trkpt>
      <trkpt lat="46.23944" lon="3.13647">
        <ele>292</ele>
        <time>2012-10-28T14:36:17Z</time>
      </trkpt>
      <trkpt lat="46.23944" lon="3.1366">
        <ele>293</ele>
        <time>2012-10-28T14:36:23Z</time>
      </trkpt>
      <trkpt lat="46.2394" lon="3.13674">
        <ele>295</ele>
        <time>2012-10-28T14:36:31Z</time>
      </trkpt>
      <trkpt lat="46.23938" lon="3.13695">
        <ele>287</ele>
        <time>2012-10-28T14:37:01Z</time>
      </trkpt>
      <trkpt lat="46.2394" lon="3.13712">
        <ele>285</ele>
        <time>2012-10-28T14:37:15Z</time>
      </trkpt>
      <trkpt lat="46.23945" lon="3.13729">
        <ele>283</ele>
        <time>2012-10-28T14:37:29Z</time>
      </trkpt>
      <trkpt lat="46.23951" lon="3.13739">
        <ele>283</ele>
        <time>2012-10-28T14:37:37Z</time>
      </trkpt>
      <trkpt lat="46.23959" lon="3.13755">
        <ele>282</ele>
        <time>2012-10-28T14:37:51Z</time>
      </trkpt>
      <trkpt lat="46.23967" lon="3.13763">
        <ele>280</ele>
        <time>2012-10-28T14:37:58Z</time>
      </trkpt>
      <trkpt lat="46.23969" lon="3.13777">
        <ele>277</ele>
        <time>2012-10-28T14:38:08Z</time>
      </trkpt>
      <trkpt lat="46.23972" lon="3.13793">
        <ele>277</ele>
        <time>2012-10-28T14:38:18Z</time>
      </trkpt>
      <trkpt lat="46.23976" lon="3.13809">
        <ele>276</ele>
        <time>2012-10-28T14:38:28Z</time>
      </trkpt>
      <trkpt lat="46.23978" lon="3.13822">
        <ele>275</ele>
        <time>2012-10-28T14:38:34Z</time>
      </trkpt>
      <trkpt lat="46.23981" lon="3.13837">
        <ele>271</ele>
        <time>2012-10-28T14:38:44Z</time>
      </trkpt>
      <trkpt lat="46.23984" lon="3.13849">
        <ele>271</ele>
        <time>2012-10-28T14:38:49Z</time>
      </trkpt>
      <trkpt lat="46.23986" lon="3.13863">
        <ele>273</ele>
        <time>2012-10-28T14:38:57Z</time>
      </trkpt>
      <trkpt lat="46.23992" lon="3.13872">
        <ele>276</ele>
        <time>2012-10-28T14:39:07Z</time>
      </trkpt>
      <trkpt lat="46.24002" lon="3.13872">
        <ele>277</ele>
        <time>2012-10-28T14:39:14Z</time>
      </trkpt>
      <trkpt lat="46.2401" lon="3.13877">
        <ele>277</ele>
        <time>2012-10-28T14:39:21Z</time>
      </trkpt>
      <trkpt lat="46.24014" lon="3.13881">
        <ele>276</ele>
        <time>2012-10-28T14:39:25Z</time>
      </trkpt>
      <trkpt lat="46.24019" lon="3.13885">
        <ele>277</ele>
        <time>2012-10-28T14:39:30Z</time>
      </trkpt>
      <trkpt lat="46.24021" lon="3.13887">
        <ele>277</ele>
        <time>2012-10-28T14:39:37Z</time>
      </trkpt>
      <trkpt lat="46.24026" lon="3.13894">
        <ele>275</ele>
        <time>2012-10-28T14:39:59Z</time>
      </trkpt>
      <trkpt lat="46.24032" lon="3.13906">
        <ele>271</ele>
        <time>2012-10-28T14:40:08Z</time>
      </trkpt>
      <trkpt lat="46.24041" lon="3.13912">
        <ele>268</ele>
        <time>2012-10-28T14:40:14Z</time>
      </trkpt>
      <trkpt lat="46.24051" lon="3.13919">
        <ele>261</ele>
        <time>2012-10-28T14:40:23Z</time>
      </trkpt>
      <trkpt lat="46.24051" lon="3.13925">
        <ele>260</ele>
        <time>2012-10-28T14:40:33Z</time>
      </trkpt>
      <trkpt lat="46.24053" lon="3.13941">
        <ele>267</ele>
        <time>2012-10-28T14:41:00Z</time>
      </trkpt>
      <trkpt lat="46.2405" lon="3.13947">
        <ele>273</ele>
        <time>2012-10-28T14:41:17Z</time>
      </trkpt>
      <trkpt lat="46.24047" lon="3.13956">
        <ele>273</ele>
        <time>2012-10-28T14:41:33Z</time>
      </trkpt>
      <trkpt lat="46.24048" lon="3.13969">
        <ele>273</ele>
        <time>2012-10-28T14:41:50Z</time>
      </trkpt>
      <trkpt lat="46.24051" lon="3.13982">
        <ele>273</ele>
        <time>2012-10-28T14:42:01Z</time>
      </trkpt>
      <trkpt lat="46.24056" lon="3.13996">
        <ele>271</ele>
        <time>2012-10-28T14:42:15Z</time>
      </trkpt>
      <trkpt lat="46.24061" lon="3.14009">
        <ele>268</ele>
        <time>2012-10-28T14:42:24Z</time>
      </trkpt>
      <trkpt lat="46.24067" lon="3.14021">
        <ele>267</ele>
        <time>2012-10-28T14:42:30Z</time>
      </trkpt>
      <trkpt lat="46.24078" lon="3.14031">
        <ele>265</ele>
        <time>2012-10-28T14:42:44Z</time>
      </trkpt>
      <trkpt lat="46.24085" lon="3.14041">
        <ele>266</ele>
        <time>2012-10-28T14:42:53Z</time>
      </trkpt>
      <trkpt lat="46.2409" lon="3.14056">
        <ele>269</ele>
        <time>2012-10-28T14:43:02Z</time>
      </trkpt>
      <trkpt lat="46.24091" lon="3.1407">
        <ele>269</ele>
        <time>2012-10-28T14:43:09Z</time>
      </trkpt>
      <trkpt lat="46.24095" lon="3.14083">
        <ele>269</ele>
        <time>2012-10-28T14:43:14Z</time>
      </trkpt>
      <trkpt lat="46.24101" lon="3.14093">
        <ele>272</ele>
        <time>2012-10-28T14:43:19Z</time>
      </trkpt>
      <trkpt lat="46.24106" lon="3.14104">
        <ele>276</ele>
        <time>2012-10-28T14:43:26Z</time>
      </trkpt>
      <trkpt lat="46.24109" lon="3.14117">
        <ele>280</ele>
        <time>2012-10-28T14:43:36Z</time>
      </trkpt>
      <trkpt lat="46.24106" lon="3.14129">
        <ele>284</ele>
        <time>2012-10-28T14:43:43Z</time>
      </trkpt>
      <trkpt lat="46.24103" lon="3.14143">
        <ele>287</ele>
        <time>2012-10-28T14:43:51Z</time>
      </trkpt>
      <trkpt lat="46.241" lon="3.14151">
        <ele>289</ele>
        <time>2012-10-28T14:44:05Z</time>
      </trkpt>
      <trkpt lat="46.24094" lon="3.14168">
        <ele>289</ele>
        <time>2012-10-28T14:44:09Z</time>
      </trkpt>
      <trkpt lat="46.2409" lon="3.1418">
        <ele>287</ele>
        <time>2012-10-28T14:44:14Z</time>
      </trkpt>
      <trkpt lat="46.24092" lon="3.14192">
        <ele>284</ele>
        <time>2012-10-28T14:44:34Z</time>
      </trkpt>
      <trkpt lat="46.24106" lon="3.14198">
        <ele>296</ele>
        <time>2012-10-28T14:45:05Z</time>
      </trkpt>
      <trkpt lat="46.24114" lon="3.14207">
        <ele>295</ele>
        <time>2012-10-28T14:45:18Z</time>
      </trkpt>
      <trkpt lat="46.24115" lon="3.14221">
        <ele>292</ele>
        <time>2012-10-28T14:45:27Z</time>
      </trkpt>
      <trkpt lat="46.24113" lon="3.14234">
        <ele>291</ele>
        <time>2012-10-28T14:45:33Z</time>
      </trkpt>
      <trkpt lat="46.24112" lon="3.14251">
        <ele>288</ele>
        <time>2012-10-28T14:45:43Z</time>
      </trkpt>
      <trkpt lat="46.24108" lon="3.14263">
        <ele>287</ele>
        <time>2012-10-28T14:45:50Z</time>
      </trkpt>
      <trkpt lat="46.24103" lon="3.14276">
        <ele>285</ele>
        <time>2012-10-28T14:45:59Z</time>
      </trkpt>
      <trkpt lat="46.24099" lon="3.1429">
        <ele>285</ele>
        <time>2012-10-28T14:46:11Z</time>
      </trkpt>
      <trkpt lat="46.24091" lon="3.14299">
        <ele>282</ele>
        <time>2012-10-28T14:46:18Z</time>
      </trkpt>
      <trkpt lat="46.24084" lon="3.14308">
        <ele>283</ele>
        <time>2012-10-28T14:46:26Z</time>
      </trkpt>
      <trkpt lat="46.24073" lon="3.14306">
        <ele>283</ele>
        <time>2012-10-28T14:46:34Z</time>
      </trkpt>
      <trkpt lat="46.24065" lon="3.14301">
        <ele>283</ele>
        <time>2012-10-28T14:46:42Z</time>
      </trkpt>
      <trkpt lat="46.24056" lon="3.14294">
        <ele>283</ele>
        <time>2012-10-28T14:46:49Z</time>
      </trkpt>
      <trkpt lat="46.24046" lon="3.14289">
        <ele>283</ele>
        <time>2012-10-28T14:46:56Z</time>
      </trkpt>
      <trkpt lat="46.24041" lon="3.14289">
        <ele>285</ele>
        <time>2012-10-28T14:47:20Z</time>
      </trkpt>
      <trkpt lat="46.24029" lon="3.14282">
        <ele>285</ele>
        <time>2012-10-28T14:47:59Z</time>
      </trkpt>
      <trkpt lat="46.24024" lon="3.14271">
        <ele>285</ele>
        <time>2012-10-28T14:48:17Z</time>
      </trkpt>
      <trkpt lat="46.24017" lon="3.14262">
        <ele>286</ele>
        <time>2012-10-28T14:48:27Z</time>
      </trkpt>
      <trkpt lat="46.24007" lon="3.14258">
        <ele>285</ele>
        <time>2012-10-28T14:48:39Z</time>
      </trkpt>
      <trkpt lat="46.23994" lon="3.14255">
        <ele>279</ele>
        <time>2012-10-28T14:48:54Z</time>
      </trkpt>
      <trkpt lat="46.23985" lon="3.1425">
        <ele>278</ele>
        <time>2012-10-28T14:49:02Z</time>
      </trkpt>
      <trkpt lat="46.23976" lon="3.14244">
        <ele>275</ele>
        <time>2012-10-28T14:49:12Z</time>
      </trkpt>
      <trkpt lat="46.23968" lon="3.14233">
        <ele>275</ele>
        <time>2012-10-28T14:49:19Z</time>
      </trkpt>
      <trkpt lat="46.23962" lon="3.14224">
        <ele>274</ele>
        <time>2012-10-28T14:49:23Z</time>
      </trkpt>
      <trkpt lat="46.23955" lon="3.14227">
        <ele>271</ele>
        <time>2012-10-28T14:49:39Z</time>
      </trkpt>
      <trkpt lat="46.23948" lon="3.14218">
        <ele>273</ele>
        <time>2012-10-28T14:49:49Z</time>
      </trkpt>
      <trkpt lat="46.23944" lon="3.14213">
        <ele>273</ele>
        <time>2012-10-28T14:50:00Z</time>
      </trkpt>
      <trkpt lat="46.23935" lon="3.1421">
        <ele>275</ele>
        <time>2012-10-28T14:50:05Z</time>
      </trkpt>
      <trkpt lat="46.2393" lon="3.14214">
        <ele>282</ele>
        <time>2012-10-28T14:50:23Z</time>
      </trkpt>
      <trkpt lat="46.23923" lon="3.14222">
        <ele>284</ele>
        <time>2012-10-28T14:50:31Z</time>
      </trkpt>
      <trkpt lat="46.23912" lon="3.1423">
        <ele>290</ele>
        <time>2012-10-28T14:50:40Z</time>
      </trkpt>
      <trkpt lat="46.23907" lon="3.14233">
        <ele>293</ele>
        <time>2012-10-28T14:50:52Z</time>
      </trkpt>
      <trkpt lat="46.23897" lon="3.14237">
        <ele>295</ele>
        <time>2012-10-28T14:50:59Z</time>
      </trkpt>
      <trkpt lat="46.23898" lon="3.14253">
        <ele>293</ele>
        <time>2012-10-28T14:51:27Z</time>
      </trkpt>
      <trkpt lat="46.23893" lon="3.1426">
        <ele>305</ele>
        <time>2012-10-28T14:52:10Z</time>
      </trkpt>
      <trkpt lat="46.23892" lon="3.14267">
        <ele>304</ele>
        <time>2012-10-28T14:52:26Z</time>
      </trkpt>
      <trkpt lat="46.23888" lon="3.14281">
        <ele>303</ele>
        <time>2012-10-28T14:52:33Z</time>
      </trkpt>
      <trkpt lat="46.23885" lon="3.14286">
        <ele>299</ele>
        <time>2012-10-28T14:52:45Z</time>
      </trkpt>
      <trkpt lat="46.2388" lon="3.14321">
        <ele>288</ele>
        <time>2012-10-28T14:53:21Z</time>
      </trkpt>
      <trkpt lat="46.23875" lon="3.14326">
        <ele>280</ele>
        <time>2012-10-28T14:53:41Z</time>
      </trkpt>
      <trkpt lat="46.23873" lon="3.14332">
        <ele>278</ele>
        <time>2012-10-28T14:53:52Z</time>
      </trkpt>
      <trkpt lat="46.23872" lon="3.1434">
        <ele>276</ele>
        <time>2012-10-28T14:54:04Z</time>
      </trkpt>
      <trkpt lat="46.23868" lon="3.14353">
        <ele>277</ele>
        <time>2012-10-28T14:54:10Z</time>
      </trkpt>
      <trkpt lat="46.23866" lon="3.14365">
        <ele>277</ele>
        <time>2012-10-28T14:54:30Z</time>
      </trkpt>
      <trkpt lat="46.23861" lon="3.14375">
        <ele>277</ele>
        <time>2012-10-28T14:54:41Z</time>
      </trkpt>
      <trkpt lat="46.23853" lon="3.14385">
        <ele>278</ele>
        <time>2012-10-28T14:54:54Z</time>
      </trkpt>
      <trkpt lat="46.2385" lon="3.1439">
        <ele>279</ele>
        <time>2012-10-28T14:55:05Z</time>
      </trkpt>
      <trkpt lat="46.23845" lon="3.14404">
        <ele>279</ele>
        <time>2012-10-28T14:55:12Z</time>
      </trkpt>
      <trkpt lat="46.23841" lon="3.14417">
        <ele>281</ele>
        <time>2012-10-28T14:55:22Z</time>
      </trkpt>
      <trkpt lat="46.23832" lon="3.14423">
        <ele>285</ele>
        <time>2012-10-28T14:55:32Z</time>
      </trkpt>
      <trkpt lat="46.23827" lon="3.14431">
        <ele>285</ele>
        <time>2012-10-28T14:55:50Z</time>
      </trkpt>
      <trkpt lat="46.23826" lon="3.14438">
        <ele>283</ele>
        <time>2012-10-28T14:56:13Z</time>
      </trkpt>
      <trkpt lat="46.23819" lon="3.14439">
        <ele>280</ele>
        <time>2012-10-28T14:56:31Z</time>
      </trkpt>
      <trkpt lat="46.2381" lon="3.14449">
        <ele>280</ele>
        <time>2012-10-28T14:56:35Z</time>
      </trkpt>
      <trkpt lat="46.23806" lon="3.14453">
        <ele>278</ele>
        <time>2012-10-28T14:56:47Z</time>
      </trkpt>
      <trkpt lat="46.23801" lon="3.14467">
        <ele>275</ele>
        <time>2012-10-28T14:57:03Z</time>
      </trkpt>
      <trkpt lat="46.23794" lon="3.1448">
        <ele>274</ele>
        <time>2012-10-28T14:57:11Z</time>
      </trkpt>
      <trkpt lat="46.23789" lon="3.14491">
        <ele>273</ele>
        <time>2012-10-28T14:57:16Z</time>
      </trkpt>
      <trkpt lat="46.2379" lon="3.14498">
        <ele>273</ele>
        <time>2012-10-28T14:57:44Z</time>
      </trkpt>
      <trkpt lat="46.23787" lon="3.14531">
        <ele>260</ele>
        <time>2012-10-28T14:58:20Z</time>
      </trkpt>
      <trkpt lat="46.23779" lon="3.14548">
        <ele>257</ele>
        <time>2012-10-28T14:58:30Z</time>
      </trkpt>
      <trkpt lat="46.23777" lon="3.14554">
        <ele>259</ele>
        <time>2012-10-28T14:58:41Z</time>
      </trkpt>
      <trkpt lat="46.23775" lon="3.14569">
        <ele>262</ele>
        <time>2012-10-28T14:58:45Z</time>
      </trkpt>
      <trkpt lat="46.23768" lon="3.14584">
        <ele>266</ele>
        <time>2012-10-28T14:58:59Z</time>
      </trkpt>
      <trkpt lat="46.23759" lon="3.14591">
        <ele>268</ele>
        <time>2012-10-28T14:59:05Z</time>
      </trkpt>
      <trkpt lat="46.23754" lon="3.14603">
        <ele>271</ele>
        <time>2012-10-28T14:59:50Z</time>
      </trkpt>
      <trkpt lat="46.23752" lon="3.14616">
        <ele>272</ele>
        <time>2012-10-28T14:59:57Z</time>
      </trkpt>
      <trkpt lat="46.23752" lon="3.1463">
        <ele>272</ele>
        <time>2012-10-28T15:00:04Z</time>
      </trkpt>
      <trkpt lat="46.23751" lon="3.14645">
        <ele>274</ele>
        <time>2012-10-28T15:00:11Z</time>
      </trkpt>
      <trkpt lat="46.2375" lon="3.14658">
        <ele>275</ele>
        <time>2012-10-28T15:00:18Z</time>
      </trkpt>
      <trkpt lat="46.23743" lon="3.14668">
        <ele>277</ele>
        <time>2012-10-28T15:00:29Z</time>
      </trkpt>
      <trkpt lat="46.23737" lon="3.14681">
        <ele>276</ele>
        <time>2012-10-28T15:00:48Z</time>
      </trkpt>
      <trkpt lat="46.23731" lon="3.14692">
        <ele>279</ele>
        <time>2012-10-28T15:00:55Z</time>
      </trkpt>
      <trkpt lat="46.23724" lon="3.14702">
        <ele>280</ele>
        <time>2012-10-28T15:00:59Z</time>
      </trkpt>
      <trkpt lat="46.23716" lon="3.14715">
        <ele>281</ele>
        <time>2012-10-28T15:01:12Z</time>
      </trkpt>
      <trkpt lat="46.23707" lon="3.14721">
        <ele>280</ele>
        <time>2012-10-28T15:01:18Z</time>
      </trkpt>
      <trkpt lat="46.23699" lon="3.1473">
        <ele>280</ele>
        <time>2012-10-28T15:01:25Z</time>
      </trkpt>
      <trkpt lat="46.23698" lon="3.14753">
        <ele>277</ele>
        <time>2012-10-28T15:01:46Z</time>
      </trkpt>
      <trkpt lat="46.23698" lon="3.1476">
        <ele>277</ele>
        <time>2012-10-28T15:02:02Z</time>
      </trkpt>
      <trkpt lat="46.23698" lon="3.14769">
        <ele>276</ele>
        <time>2012-10-28T15:02:24Z</time>
      </trkpt>
      <trkpt lat="46.23704" lon="3.14782">
        <ele>278</ele>
        <time>2012-10-28T15:02:49Z</time>
      </trkpt>
      <trkpt lat="46.23714" lon="3.14791">
        <ele>270</ele>
        <time>2012-10-28T15:03:28Z</time>
      </trkpt>
      <trkpt lat="46.23723" lon="3.14792">
        <ele>269</ele>
        <time>2012-10-28T15:03:48Z</time>
      </trkpt>
      <trkpt lat="46.23732" lon="3.14795">
        <ele>270</ele>
        <time>2012-10-28T15:04:05Z</time>
      </trkpt>
      <trkpt lat="46.23736" lon="3.14799">
        <ele>271</ele>
        <time>2012-10-28T15:04:21Z</time>
      </trkpt>
      <trkpt lat="46.23742" lon="3.14809">
        <ele>271</ele>
        <time>2012-10-28T15:04:30Z</time>
      </trkpt>
      <trkpt lat="46.23749" lon="3.14822">
        <ele>270</ele>
        <time>2012-10-28T15:04:37Z</time>
      </trkpt>
      <trkpt lat="46.23753" lon="3.14835">
        <ele>271</ele>
        <time>2012-10-28T15:04:44Z</time>
      </trkpt>
      <trkpt lat="46.23751" lon="3.14849">
        <ele>268</ele>
        <time>2012-10-28T15:04:55Z</time>
      </trkpt>
      <trkpt lat="46.23751" lon="3.14856">
        <ele>268</ele>
        <time>2012-10-28T15:05:06Z</time>
      </trkpt>
      <trkpt lat="46.23752" lon="3.1487">
        <ele>269</ele>
        <time>2012-10-28T15:05:14Z</time>
      </trkpt>
      <trkpt lat="46.23759" lon="3.14882">
        <ele>271</ele>
        <time>2012-10-28T15:05:22Z</time>
      </trkpt>
      <trkpt lat="46.23767" lon="3.14892">
        <ele>271</ele>
        <time>2012-10-28T15:05:28Z</time>
      </trkpt>
      <trkpt lat="46.23774" lon="3.14895">
        <ele>272</ele>
        <time>2012-10-28T15:05:44Z</time>
      </trkpt>
      <trkpt lat="46.2378" lon="3.14906">
        <ele>270</ele>
        <time>2012-10-28T15:05:52Z</time>
      </trkpt>
      <trkpt lat="46.23788" lon="3.14916">
        <ele>268</ele>
        <time>2012-10-28T15:06:02Z</time>
      </trkpt>
      <trkpt lat="46.238" lon="3.14921">
        <ele>268</ele>
        <time>2012-10-28T15:06:15Z</time>
      </trkpt>
      <trkpt lat="46.23808" lon="3.14915">
        <ele>267</ele>
        <time>2012-10-28T15:06:24Z</time>
      </trkpt>
      <trkpt lat="46.23817" lon="3.14909">
        <ele>267</ele>
        <time>2012-10-28T15:06:30Z</time>
      </trkpt>
      <trkpt lat="46.23827" lon="3.14915">
        <ele>273</ele>
        <time>2012-10-28T15:06:58Z</time>
      </trkpt>
      <trkpt lat="46.23839" lon="3.14927">
        <ele>277</ele>
        <time>2012-10-28T15:07:17Z</time>
      </trkpt>
      <trkpt lat="46.23842" lon="3.1494">
        <ele>276</ele>
        <time>2012-10-28T15:07:28Z</time>
      </trkpt>
      <trkpt lat="46.23846" lon="3.14948">
        <ele>276</ele>
        <time>2012-10-28T15:07:54Z</time>
      </trkpt>
      <trkpt lat="46.23858" lon="3.14961">
        <ele>274</ele>
        <time>2012-10-28T15:08:21Z</time>
      </trkpt>
      <trkpt lat="46.23866" lon="3.14957">
        <ele>274</ele>
        <time>2012-10-28T15:08:25Z</time>
      </trkpt>
      <trkpt lat="46.23877" lon="3.14955">
        <ele>275</ele>
        <time>2012-10-28T15:08:40Z</time>
      </trkpt>
      <trkpt lat="46.23889" lon="3.14951">
        <ele>273</ele>
        <time>2012-10-28T15:08:48Z</time>
      </trkpt>
      <trkpt lat="46.23894" lon="3.14951">
        <ele>271</ele>
        <time>2012-10-28T15:09:00Z</time>
      </trkpt>
      <trkpt lat="46.23898" lon="3.14965">
        <ele>269</ele>
        <time>2012-10-28T15:09:15Z</time>
      </trkpt>
      <trkpt lat="46.23905" lon="3.14978">
        <ele>266</ele>
        <time>2012-10-28T15:09:28Z</time>
      </trkpt>
      <trkpt lat="46.23915" lon="3.14992">
        <ele>264</ele>
        <time>2012-10-28T15:09:43Z</time>
      </trkpt>
      <trkpt lat="46.23926" lon="3.14995">
        <ele>265</ele>
        <time>2012-10-28T15:09:54Z</time>
      </trkpt>
      <trkpt lat="46.23936" lon="3.14995">
        <ele>265</ele>
        <time>2012-10-28T15:10:00Z</time>
      </trkpt>
      <trkpt lat="46.23946" lon="3.14997">
        <ele>265</ele>
        <time>2012-10-28T15:10:09Z</time>
      </trkpt>
      <trkpt lat="46.23948" lon="3.15014">
        <ele>262</ele>
        <time>2012-10-28T15:10:21Z</time>
      </trkpt>
      <trkpt lat="46.2395" lon="3.15031">
        <ele>259</ele>
        <time>2012-10-28T15:10:33Z</time>
      </trkpt>
      <trkpt lat="46.23956" lon="3.15044">
        <ele>258</ele>
        <time>2012-10-28T15:10:40Z</time>
      </trkpt>
      <trkpt lat="46.23964" lon="3.15051">
        <ele>260</ele>
        <time>2012-10-28T15:10:47Z</time>
      </trkpt>
      <trkpt lat="46.23984" lon="3.1508">
        <ele>280</ele>
        <time>2012-10-28T15:11:18Z</time>
      </trkpt>
      <trkpt lat="46.23989" lon="3.15085">
        <ele>283</ele>
        <time>2012-10-28T15:11:35Z</time>
      </trkpt>
      <trkpt lat="46.23991" lon="3.15091">
        <ele>283</ele>
        <time>2012-10-28T15:11:46Z</time>
      </trkpt>
      <trkpt lat="46.23999" lon="3.151">
        <ele>281</ele>
        <time>2012-10-28T15:11:53Z</time>
      </trkpt>
      <trkpt lat="46.24011" lon="3.15108">
        <ele>278</ele>
        <time>2012-10-28T15:11:58Z</time>
      </trkpt>
      <trkpt lat="46.24032" lon="3.15101">
        <ele>264</ele>
        <time>2012-10-28T15:12:20Z</time>
      </trkpt>
      <trkpt lat="46.2404" lon="3.15094">
        <ele>263</ele>
        <time>2012-10-28T15:12:23Z</time>
      </trkpt>
      <trkpt lat="46.24049" lon="3.15088">
        <ele>261</ele>
        <time>2012-10-28T15:12:29Z</time>
      </trkpt>
      <trkpt lat="46.2406" lon="3.15081">
        <ele>260</ele>
        <time>2012-10-28T15:12:36Z</time>
      </trkpt>
      <trkpt lat="46.2407" lon="3.15078">
        <ele>259</ele>
        <time>2012-10-28T15:12:41Z</time>
      </trkpt>
      <trkpt lat="46.24078" lon="3.15073">
        <ele>261</ele>
        <time>2012-10-28T15:12:46Z</time>
      </trkpt>
      <trkpt lat="46.24086" lon="3.15062">
        <ele>266</ele>
        <time>2012-10-28T15:12:56Z</time>
      </trkpt>
      <trkpt lat="46.24099" lon="3.15056">
        <ele>271</ele>
        <time>2012-10-28T15:13:12Z</time>
      </trkpt>
      <trkpt lat="46.24107" lon="3.15047">
        <ele>274</ele>
        <time>2012-10-28T15:13:25Z</time>
      </trkpt>
      <trkpt lat="46.24118" lon="3.15036">
        <ele>275</ele>
        <time>2012-10-28T15:13:32Z</time>
      </trkpt>
      <trkpt lat="46.24126" lon="3.15025">
        <ele>278</ele>
        <time>2012-10-28T15:13:45Z</time>
      </trkpt>
      <trkpt lat="46.24134" lon="3.15018">
        <ele>277</ele>
        <time>2012-10-28T15:14:06Z</time>
      </trkpt>
      <trkpt lat="46.24142" lon="3.15011">
        <ele>275</ele>
        <time>2012-10-28T15:14:18Z</time>
      </trkpt>
      <trkpt lat="46.24152" lon="3.15005">
        <ele>271</ele>
        <time>2012-10-28T15:14:39Z</time>
      </trkpt>
      <trkpt lat="46.24161" lon="3.14995">
        <ele>266</ele>
        <time>2012-10-28T15:14:49Z</time>
      </trkpt>
      <trkpt lat="46.2417" lon="3.14984">
        <ele>264</ele>
        <time>2012-10-28T15:14:53Z</time>
      </trkpt>
      <trkpt lat="46.2418" lon="3.14978">
        <ele>262</ele>
        <time>2012-10-28T15:14:59Z</time>
      </trkpt>
      <trkpt lat="46.2419" lon="3.14978">
        <ele>261</ele>
        <time>2012-10-28T15:15:08Z</time>
      </trkpt>
      <trkpt lat="46.242" lon="3.1497">
        <ele>260</ele>
        <time>2012-10-28T15:15:21Z</time>
      </trkpt>
      <trkpt lat="46.24207" lon="3.14954">
        <ele>263</ele>
        <time>2012-10-28T15:15:44Z</time>
      </trkpt>
      <trkpt lat="46.24207" lon="3.14943">
        <ele>266</ele>
        <time>2012-10-28T15:16:09Z</time>
      </trkpt>
      <trkpt lat="46.24216" lon="3.14948">
        <ele>265</ele>
        <time>2012-10-28T15:16:42Z</time>
      </trkpt>
      <trkpt lat="46.24239" lon="3.14945">
        <ele>264</ele>
        <time>2012-10-28T15:16:55Z</time>
      </trkpt>
      <trkpt lat="46.24251" lon="3.14951">
        <ele>263</ele>
        <time>2012-10-28T15:17:05Z</time>
      </trkpt>
      <trkpt lat="46.24255" lon="3.14969">
        <ele>264</ele>
        <time>2012-10-28T15:17:28Z</time>
      </trkpt>
      <trkpt lat="46.24263" lon="3.14978">
        <ele>266</ele>
        <time>2012-10-28T15:17:33Z</time>
      </trkpt>
      <trkpt lat="46.2427" lon="3.14986">
        <ele>267</ele>
        <time>2012-10-28T15:17:44Z</time>
      </trkpt>
      <trkpt lat="46.24281" lon="3.14988">
        <ele>267</ele>
        <time>2012-10-28T15:17:50Z</time>
      </trkpt>
      <trkpt lat="46.24291" lon="3.14993">
        <ele>267</ele>
        <time>2012-10-28T15:17:59Z</time>
      </trkpt>
      <trkpt lat="46.24301" lon="3.14995">
        <ele>267</ele>
        <time>2012-10-28T15:18:07Z</time>
      </trkpt>
      <trkpt lat="46.24306" lon="3.14995">
        <ele>267</ele>
        <time>2012-10-28T15:18:20Z</time>
      </trkpt>
      <trkpt lat="46.24314" lon="3.15001">
        <ele>264</ele>
        <time>2012-10-28T15:18:30Z</time>
      </trkpt>
      <trkpt lat="46.24322" lon="3.15008">
        <ele>262</ele>
        <time>2012-10-28T15:18:36Z</time>
      </trkpt>
      <trkpt lat="46.24327" lon="3.15025">
        <ele>259</ele>
        <time>2012-10-28T15:18:43Z</time>
      </trkpt>
      <trkpt lat="46.24327" lon="3.15035">
        <ele>252</ele>
        <time>2012-10-28T15:18:59Z</time>
      </trkpt>
      <trkpt lat="46.2433" lon="3.1504">
        <ele>249</ele>
        <time>2012-10-28T15:19:10Z</time>
      </trkpt>
      <trkpt lat="46.2434" lon="3.15051">
        <ele>247</ele>
        <time>2012-10-28T15:19:21Z</time>
      </trkpt>
      <trkpt lat="46.24348" lon="3.15062">
        <ele>242</ele>
        <time>2012-10-28T15:19:28Z</time>
      </trkpt>
      <trkpt lat="46.24354" lon="3.15073">
        <ele>239</ele>
        <time>2012-10-28T15:19:36Z</time>
      </trkpt>
      <trkpt lat="46.24356" lon="3.15089">
        <ele>236</ele>
        <time>2012-10-28T15:19:45Z</time>
      </trkpt>
      <trkpt lat="46.2436" lon="3.15102">
        <ele>235</ele>
        <time>2012-10-28T15:19:50Z</time>
      </trkpt>
      <trkpt lat="46.24365" lon="3.15118">
        <ele>234</ele>
        <time>2012-10-28T15:19:57Z</time>
      </trkpt>
      <trkpt lat="46.24371" lon="3.15131">
        <ele>236</ele>
        <time>2012-10-28T15:20:06Z</time>
      </trkpt>
      <trkpt lat="46.24376" lon="3.1515">
        <ele>239</ele>
        <time>2012-10-28T15:20:13Z</time>
      </trkpt>
      <trkpt lat="46.24376" lon="3.15168">
        <ele>242</ele>
        <time>2012-10-28T15:20:19Z</time>
      </trkpt>
      <trkpt lat="46.24376" lon="3.15186">
        <ele>247</ele>
        <time>2012-10-28T15:20:29Z</time>
      </trkpt>
      <trkpt lat="46.24377" lon="3.15196">
        <ele>252</ele>
        <time>2012-10-28T15:20:45Z</time>
      </trkpt>
      <trkpt lat="46.24369" lon="3.15213">
        <ele>252</ele>
        <time>2012-10-28T15:20:56Z</time>
      </trkpt>
      <trkpt lat="46.24373" lon="3.15225">
        <ele>254</ele>
        <time>2012-10-28T15:21:07Z</time>
      </trkpt>
      <trkpt lat="46.2437" lon="3.15242">
        <ele>254</ele>
        <time>2012-10-28T15:21:21Z</time>
      </trkpt>
      <trkpt lat="46.24361" lon="3.15249">
        <ele>252</ele>
        <time>2012-10-28T15:21:32Z</time>
      </trkpt>
      <trkpt lat="46.24351" lon="3.15245">
        <ele>252</ele>
        <time>2012-10-28T15:21:39Z</time>
      </trkpt>
      <trkpt lat="46.24343" lon="3.15236">
        <ele>254</ele>
        <time>2012-10-28T15:21:44Z</time>
      </trkpt>
      <trkpt lat="46.24336" lon="3.15226">
        <ele>257</ele>
        <time>2012-10-28T15:21:50Z</time>
      </trkpt>
      <trkpt lat="46.24328" lon="3.15218">
        <ele>261</ele>
        <time>2012-10-28T15:21:57Z</time>
      </trkpt>
      <trkpt lat="46.24321" lon="3.15208">
        <ele>265</ele>
        <time>2012-10-28T15:22:03Z</time>
      </trkpt>
      <trkpt lat="46.24312" lon="3.152">
        <ele>268</ele>
        <time>2012-10-28T15:22:12Z</time>
      </trkpt>
      <trkpt lat="46.24303" lon="3.15194">
        <ele>269</ele>
        <time>2012-10-28T15:22:19Z</time>
      </trkpt>
      <trkpt lat="46.24293" lon="3.15192">
        <ele>268</ele>
        <time>2012-10-28T15:22:29Z</time>
      </trkpt>
      <trkpt lat="46.24282" lon="3.15188">
        <ele>269</ele>
        <time>2012-10-28T15:22:42Z</time>
      </trkpt>
      <trkpt lat="46.24274" lon="3.1518">
        <ele>268</ele>
        <time>2012-10-28T15:22:51Z</time>
      </trkpt>
      <trkpt lat="46.24272" lon="3.15165">
        <ele>267</ele>
        <time>2012-10-28T15:22:57Z</time>
      </trkpt>
      <trkpt lat="46.24268" lon="3.15153">
        <ele>266</ele>
        <time>2012-10-28T15:23:03Z</time>
      </trkpt>
      <trkpt lat="46.24265" lon="3.1514">
        <ele>265</ele>
        <time>2012-10-28T15:23:10Z</time>
      </trkpt>
      <trkpt lat="46.24259" lon="3.15129">
        <ele>266</ele>
        <time>2012-10-28T15:23:20Z</time>
      </trkpt>
      <trkpt lat="46.24253" lon="3.15119">
        <ele>270</ele>
        <time>2012-10-28T15:23:30Z</time>
      </trkpt>
      <trkpt lat="46.24244" lon="3.15111">
        <ele>274</ele>
        <time>2012-10-28T15:23:39Z</time>
      </trkpt>
      <trkpt lat="46.24234" lon="3.15108">
        <ele>277</ele>
        <time>2012-10-28T15:23:51Z</time>
      </trkpt>
      <trkpt lat="46.24225" lon="3.15105">
        <ele>280</ele>
        <time>2012-10-28T15:23:58Z</time>
      </trkpt>
      <trkpt lat="46.2422" lon="3.15105">
        <ele>287</ele>
        <time>2012-10-28T15:24:10Z</time>
      </trkpt>
      <trkpt lat="46.24219" lon="3.15122">
        <ele>287</ele>
        <time>2012-10-28T15:24:17Z</time>
      </trkpt>
      <trkpt lat="46.24224" lon="3.15136">
        <ele>287</ele>
        <time>2012-10-28T15:24:24Z</time>
      </trkpt>
      <trkpt lat="46.24227" lon="3.15141">
        <ele>288</ele>
        <time>2012-10-28T15:24:35Z</time>
      </trkpt>
      <trkpt lat="46.24228" lon="3.15155">
        <ele>288</ele>
        <time>2012-10-28T15:24:42Z</time>
      </trkpt>
      <trkpt lat="46.24231" lon="3.15172">
        <ele>287</ele>
        <time>2012-10-28T15:24:53Z</time>
      </trkpt>
      <trkpt lat="46.24234" lon="3.15163">
        <ele>288</ele>
        <time>2012-10-28T15:25:14Z</time>
      </trkpt>
      <trkpt lat="46.2423" lon="3.1515">
        <ele>290</ele>
        <time>2012-10-28T15:25:21Z</time>
      </trkpt>
      <trkpt lat="46.24223" lon="3.15141">
        <ele>291</ele>
        <time>2012-10-28T15:25:29Z</time>
      </trkpt>
      <trkpt lat="46.24214" lon="3.15134">
        <ele>292</ele>
        <time>2012-10-28T15:25:38Z</time>
      </trkpt>
      <trkpt lat="46.24205" lon="3.15128">
        <ele>293</ele>
        <time>2012-10-28T15:25:46Z</time>
      </trkpt>
      <trkpt lat="46.24195" lon="3.15125">
        <ele>292</ele>
        <time>2012-10-28T15:25:53Z</time>
      </trkpt>
      <trkpt lat="46.24185" lon="3.15124">
        <ele>295</ele>
        <time>2012-10-28T15:26:02Z</time>
      </trkpt>
      <trkpt lat="46.24176" lon="3.15134">
        <ele>299</ele>
        <time>2012-10-28T15:26:17Z</time>
      </trkpt>
      <trkpt lat="46.24167" lon="3.15141">
        <ele>303</ele>
        <time>2012-10-28T15:26:26Z</time>
      </trkpt>
      <trkpt lat="46.24159" lon="3.1515">
        <ele>305</ele>
        <time>2012-10-28T15:26:35Z</time>
      </trkpt>
      <trkpt lat="46.24151" lon="3.15156">
        <ele>307</ele>
        <time>2012-10-28T15:26:43Z</time>
      </trkpt>
      <trkpt lat="46.24142" lon="3.15159">
        <ele>307</ele>
        <time>2012-10-28T15:26:51Z</time>
      </trkpt>
      <trkpt lat="46.24133" lon="3.15166">
        <ele>308</ele>
        <time>2012-10-28T15:26:59Z</time>
      </trkpt>
      <trkpt lat="46.24126" lon="3.15173">
        <ele>309</ele>
        <time>2012-10-28T15:27:08Z</time>
      </trkpt>
      <trkpt lat="46.24116" lon="3.15187">
        <ele>311</ele>
        <time>2012-10-28T15:27:27Z</time>
      </trkpt>
      <trkpt lat="46.24106" lon="3.15187">
        <ele>312</ele>
        <time>2012-10-28T15:27:34Z</time>
      </trkpt>
      <trkpt lat="46.24097" lon="3.15192">
        <ele>312</ele>
        <time>2012-10-28T15:27:44Z</time>
      </trkpt>
      <trkpt lat="46.24092" lon="3.15206">
        <ele>315</ele>
        <time>2012-10-28T15:27:55Z</time>
      </trkpt>
      <trkpt lat="46.24083" lon="3.15212">
        <ele>315</ele>
        <time>2012-10-28T15:28:06Z</time>
      </trkpt>
      <trkpt lat="46.24083" lon="3.15204">
        <ele>317</ele>
        <time>2012-10-28T15:28:21Z</time>
      </trkpt>
    </trkseg>
  </trk>
</gpx>